Observation data for Tahoka on 05/15/2018      Previous  Date  Next       Current Mesonet Observations  Soil Data  Daily Summary Page  Observations in Plain Language
KTAS 150500Z 16009KT 23/12 A2994 RMK A01 T02250123  RH  052%=      5-min Rain = 0
KTAS 150501Z 16009KT 23/12 A2994 RMK A01 T02250123  RH  053%=      5-min Rain = 0
KTAS 150502Z 16011KT 22/12 A2994 RMK A01 T02240123  RH  053%=      5-min Rain = 0
KTAS 150503Z 16009KT 22/12 A2994 RMK A01 T02240123  RH  053%=      5-min Rain = 0
KTAS 150504Z 16010KT 22/12 A2994 RMK A01 T02240124  RH  053%=      5-min Rain = 0
KTAS 150505Z 16009KT 22/12 A2994 RMK A01 T02230124  RH  053%=      5-min Rain = 0
KTAS 150506Z 16010KT 22/12 A2994 RMK A01 T02230124  RH  053%=      5-min Rain = 0
KTAS 150507Z 16009KT 22/12 A2994 RMK A01 T02230124  RH  054%=      5-min Rain = 0
KTAS 150508Z 16009KT 22/12 A2994 RMK A01 T02230124  RH  054%=      5-min Rain = 0
KTAS 150509Z 16008KT 22/12 A2994 RMK A01 T02220124  RH  054%=      5-min Rain = 0
KTAS 150510Z 16009KT 22/12 A2994 RMK A01 T02220124  RH  054%=      5-min Rain = 0
KTAS 150511Z 16008KT 22/12 A2994 RMK A01 T02210124  RH  054%=      5-min Rain = 0
KTAS 150512Z 16008KT 22/12 A2994 RMK A01 T02210124  RH  054%=      5-min Rain = 0
KTAS 150513Z 16008KT 22/12 A2994 RMK A01 T02200124  RH  054%=      5-min Rain = 0
KTAS 150514Z 15009KT 22/12 A2994 RMK A01 T02200124  RH  054%=      5-min Rain = 0
KTAS 150515Z 15008KT 22/12 A2994 RMK A01 T02200124  RH  054%=      5-min Rain = 0
KTAS 150516Z 15008KT 22/12 A2994 RMK A01 T02200124  RH  054%=      5-min Rain = 0
KTAS 150517Z 14006KT 22/12 A2994 RMK A01 T02190124  RH  055%=      5-min Rain = 0
KTAS 150518Z 15007KT 22/12 A2994 RMK A01 T02190123  RH  055%=      5-min Rain = 0
KTAS 150519Z 14007KT 22/12 A2995 RMK A01 T02180124  RH  055%=      5-min Rain = 0
KTAS 150520Z 14006KT 22/12 A2995 RMK A01 T02180124  RH  055%=      5-min Rain = 0
KTAS 150521Z 14007KT 22/12 A2995 RMK A01 T02180124  RH  055%=      5-min Rain = 0
KTAS 150522Z 14006KT 22/12 A2994 RMK A01 T02180124  RH  055%=      5-min Rain = 0
KTAS 150523Z 14006KT 22/12 A2994 RMK A01 T02170124  RH  055%=      5-min Rain = 0
KTAS 150524Z 14006KT 22/13 A2994 RMK A01 T02170125  RH  056%=      5-min Rain = 0
KTAS 150525Z 13005KT 22/13 A2994 RMK A01 T02160125  RH  056%=      5-min Rain = 0
KTAS 150526Z 14006KT 22/13 A2994 RMK A01 T02160126  RH  056%=      5-min Rain = 0
KTAS 150527Z 13006KT 22/13 A2995 RMK A01 T02160126  RH  057%=      5-min Rain = 0
KTAS 150528Z 13006KT 22/13 A2995 RMK A01 T02150126  RH  057%=      5-min Rain = 0
KTAS 150529Z 13007KT 22/13 A2995 RMK A01 T02150126  RH  057%=      5-min Rain = 0
KTAS 150530Z 13006KT 21/13 A2995 RMK A01 T02140126  RH  057%=      5-min Rain = 0
KTAS 150531Z 13007KT 21/13 A2995 RMK A01 T02140125  RH  057%=      5-min Rain = 0
KTAS 150532Z 14007KT 21/13 A2995 RMK A01 T02130125  RH  057%=      5-min Rain = 0
KTAS 150533Z 14007KT 21/13 A2995 RMK A01 T02140125  RH  057%=      5-min Rain = 0
KTAS 150534Z 14007KT 21/13 A2995 RMK A01 T02140126  RH  057%=      5-min Rain = 0
KTAS 150535Z 14007KT 21/13 A2995 RMK A01 T02140126  RH  058%=      5-min Rain = 0
KTAS 150536Z 15007KT 21/13 A2995 RMK A01 T02140127  RH  058%=      5-min Rain = 0
KTAS 150537Z 15007KT 21/13 A2995 RMK A01 T02130127  RH  058%=      5-min Rain = 0
KTAS 150538Z 16007KT 21/13 A2995 RMK A01 T02130127  RH  058%=      5-min Rain = 0
KTAS 150539Z 16007KT 21/13 A2995 RMK A01 T02130128  RH  058%=      5-min Rain = 0
KTAS 150540Z 17007KT 21/13 A2995 RMK A01 T02130129  RH  059%=      5-min Rain = 0
KTAS 150541Z 17009KT 21/13 A2995 RMK A01 T02130130  RH  059%=      5-min Rain = 0
KTAS 150542Z 17009KT 21/13 A2995 RMK A01 T02130131  RH  059%=      5-min Rain = 0
KTAS 150543Z 17009KT 21/13 A2995 RMK A01 T02130132  RH  060%=      5-min Rain = 0
KTAS 150544Z 18009KT 21/13 A2995 RMK A01 T02130134  RH  061%=      5-min Rain = 0
KTAS 150545Z 18010KT 21/14 A2995 RMK A01 T02140135  RH  061%=      5-min Rain = 0
KTAS 150546Z 18009KT 21/14 A2995 RMK A01 T02140136  RH  061%=      5-min Rain = 0
KTAS 150547Z 19009KT 21/14 A2995 RMK A01 T02140137  RH  061%=      5-min Rain = 0
KTAS 150548Z 18010KT 21/14 A2995 RMK A01 T02140138  RH  062%=      5-min Rain = 0
KTAS 150549Z 18010KT 21/14 A2995 RMK A01 T02140140  RH  062%=      5-min Rain = 0
KTAS 150550Z 18010KT 21/14 A2995 RMK A01 T02140140  RH  063%=      5-min Rain = 0
KTAS 150551Z 18010KT 21/14 A2995 RMK A01 T02140142  RH  063%=      5-min Rain = 0
KTAS 150552Z 18011KT 22/15 A2995 RMK A01 T02160145  RH  064%=      5-min Rain = 0
KTAS 150553Z 17010KT 22/15 A2995 RMK A01 T02160145  RH  064%=      5-min Rain = 0
KTAS 150554Z 17009KT 22/15 A2995 RMK A01 T02160145  RH  064%=      5-min Rain = 0
KTAS 150555Z 16011KT 22/15 A2995 RMK A01 T02160146  RH  064%=      5-min Rain = 0
KTAS 150556Z 16010G16KT 22/15 A2995 RMK A01 T02160148  RH  065%=      5-min Rain = 0
KTAS 150557Z 16008KT 22/15 A2995 RMK A01 T02170150  RH  066%=      5-min Rain = 0
KTAS 150558Z 16010KT 22/15 A2995 RMK A01 T02170150  RH  066%=      5-min Rain = 0
KTAS 150559Z 16011KT 22/15 A2995 RMK A01 T02170152  RH  066%=      5-min Rain = 0
KTAS 150600Z 16011KT 22/15 A2995 RMK A01 T02180153  RH  067%=      5-min Rain = 0
KTAS 150601Z 16009KT 22/15 A2995 RMK A01 T02180154  RH  067%=      5-min Rain = 0
KTAS 150602Z 17012KT 22/16 A2995 RMK A01 T02190155  RH  067%=      5-min Rain = 0
KTAS 150603Z 17011G16KT 22/16 A2995 RMK A01 T02200156  RH  067%=      5-min Rain = 0
KTAS 150604Z 17011G18KT 22/16 A2995 RMK A01 T02210156  RH  067%=      5-min Rain = 0
KTAS 150605Z 17014KT 22/16 A2995 RMK A01 T02220157  RH  067%=      5-min Rain = 0
KTAS 150606Z 17013KT 22/16 A2995 RMK A01 T02230157  RH  066%=      5-min Rain = 0
KTAS 150607Z 17013KT 22/16 A2995 RMK A01 T02230156  RH  066%=      5-min Rain = 0
KTAS 150608Z 17015KT 22/16 A2995 RMK A01 T02220156  RH  066%=      5-min Rain = 0
KTAS 150609Z 17013KT 22/16 A2995 RMK A01 T02230156  RH  066%=      5-min Rain = 0
KTAS 150610Z 17014KT 22/16 A2995 RMK A01 T02230156  RH  066%=      5-min Rain = 0
KTAS 150611Z 17012KT 22/16 A2995 RMK A01 T02230156  RH  066%=      5-min Rain = 0
KTAS 150612Z 17012KT 22/16 A2995 RMK A01 T02220156  RH  066%=      5-min Rain = 0
KTAS 150613Z 18013KT 22/16 A2995 RMK A01 T02220156  RH  066%=      5-min Rain = 0
KTAS 150614Z 18014KT 22/16 A2995 RMK A01 T02210156  RH  066%=      5-min Rain = 0
KTAS 150615Z 17012KT 22/16 A2995 RMK A01 T02220156  RH  066%=      5-min Rain = 0
KTAS 150616Z 18014KT 22/16 A2995 RMK A01 T02210156  RH  066%=      5-min Rain = 0
KTAS 150617Z 18014KT 22/16 A2995 RMK A01 T02210156  RH  067%=      5-min Rain = 0
KTAS 150618Z 18013KT 22/16 A2995 RMK A01 T02210156  RH  066%=      5-min Rain = 0
KTAS 150619Z 18015KT 22/16 A2995 RMK A01 T02210156  RH  067%=      5-min Rain = 0
KTAS 150620Z 18015KT 22/16 A2995 RMK A01 T02210156  RH  067%=      5-min Rain = 0
KTAS 150621Z 18013G19KT 22/16 A2995 RMK A01 T02210156  RH  067%=      5-min Rain = 0
KTAS 150622Z 18017KT 22/16 A2995 RMK A01 T02210156  RH  067%=      5-min Rain = 0
KTAS 150623Z 17017KT 22/16 A2995 RMK A01 T02210156  RH  067%=      5-min Rain = 0
KTAS 150624Z 17015KT 22/16 A2995 RMK A01 T02210155  RH  066%=      5-min Rain = 0
KTAS 150625Z 17017KT 22/16 A2996 RMK A01 T02200156  RH  067%=      5-min Rain = 0
KTAS 150626Z 17015KT 22/16 A2996 RMK A01 T02200155  RH  067%=      5-min Rain = 0
KTAS 150627Z 17015KT 22/16 A2996 RMK A01 T02200155  RH  067%=      5-min Rain = 0
KTAS 150628Z 17017KT 22/16 A2996 RMK A01 T02200156  RH  067%=      5-min Rain = 0
KTAS 150629Z 18017KT 22/16 A2996 RMK A01 T02200156  RH  067%=      5-min Rain = 0
KTAS 150630Z 18015KT 22/16 A2996 RMK A01 T02200156  RH  067%=      5-min Rain = 0
KTAS 150631Z 17016KT 22/16 A2995 RMK A01 T02200156  RH  067%=      5-min Rain = 0
KTAS 150632Z 18014KT 22/16 A2995 RMK A01 T02190155  RH  067%=      5-min Rain = 0
KTAS 150633Z 18015KT 22/16 A2995 RMK A01 T02190156  RH  067%=      5-min Rain = 0
KTAS 150634Z 18014KT 22/16 A2995 RMK A01 T02190155  RH  067%=      5-min Rain = 0
KTAS 150635Z 18014KT 22/16 A2995 RMK A01 T02180155  RH  067%=      5-min Rain = 0
KTAS 150636Z 19014KT 22/16 A2995 RMK A01 T02180155  RH  068%=      5-min Rain = 0
KTAS 150637Z 19015KT 22/16 A2995 RMK A01 T02170155  RH  068%=      5-min Rain = 0
KTAS 150638Z 19013KT 22/16 A2995 RMK A01 T02170156  RH  068%=      5-min Rain = 0
KTAS 150639Z 19014KT 22/16 A2995 RMK A01 T02170155  RH  068%=      5-min Rain = 0
KTAS 150640Z 19013G18KT 22/16 A2995 RMK A01 T02160156  RH  068%=      5-min Rain = 0
KTAS 150641Z 19015KT 22/16 A2995 RMK A01 T02160155  RH  068%=      5-min Rain = 0
KTAS 150642Z 19017KT 22/16 A2995 RMK A01 T02160156  RH  068%=      5-min Rain = 0
KTAS 150643Z 19015KT 22/16 A2995 RMK A01 T02160156  RH  068%=      5-min Rain = 0
KTAS 150644Z 20015G20KT 22/16 A2995 RMK A01 T02160156  RH  069%=      5-min Rain = 0
KTAS 150645Z 20015KT 22/16 A2995 RMK A01 T02160156  RH  069%=      5-min Rain = 0
KTAS 150646Z 20016KT 22/16 A2995 RMK A01 T02160156  RH  069%=      5-min Rain = 0
KTAS 150647Z 20013KT 22/16 A2995 RMK A01 T02150156  RH  069%=      5-min Rain = 0
KTAS 150648Z 21016KT 22/16 A2995 RMK A01 T02150156  RH  069%=      5-min Rain = 0
KTAS 150649Z 20015KT 22/16 A2995 RMK A01 T02160156  RH  069%=      5-min Rain = 0
KTAS 150650Z 21014KT 22/16 A2995 RMK A01 T02160156  RH  069%=      5-min Rain = 0
KTAS 150651Z 20016KT 22/16 A2995 RMK A01 T02150156  RH  069%=      5-min Rain = 0
KTAS 150652Z 20016KT 22/16 A2995 RMK A01 T02160157  RH  069%=      5-min Rain = 0
KTAS 150653Z 20016KT 22/16 A2995 RMK A01 T02160157  RH  069%=      5-min Rain = 0
KTAS 150654Z 20015KT 22/16 A2995 RMK A01 T02150156  RH  069%=      5-min Rain = 0
KTAS 150655Z 20015KT 22/16 A2995 RMK A01 T02150157  RH  069%=      5-min Rain = 0
KTAS 150656Z 19017G22KT 22/16 A2995 RMK A01 T02150157  RH  069%=      5-min Rain = 0
KTAS 150657Z 19015KT 22/16 A2995 RMK A01 T02150157  RH  069%=      5-min Rain = 0
KTAS 150658Z 19013KT 21/16 A2995 RMK A01 T02140156  RH  070%=      5-min Rain = 0
KTAS 150659Z 19015G20KT 21/16 A2995 RMK A01 T02140156  RH  070%=      5-min Rain = 0
KTAS 150700Z 19013KT 21/16 A2995 RMK A01 T02130157  RH  070%=      5-min Rain = 0
KTAS 150701Z 19013KT 21/16 A2995 RMK A01 T02130156  RH  070%=      5-min Rain = 0
KTAS 150702Z 19014KT 21/16 A2995 RMK A01 T02130156  RH  070%=      5-min Rain = 0
KTAS 150703Z 19016KT 21/16 A2995 RMK A01 T02130157  RH  070%=      5-min Rain = 0
KTAS 150704Z 19013KT 21/16 A2995 RMK A01 T02140157  RH  070%=      5-min Rain = 0
KTAS 150705Z 20012KT 21/16 A2995 RMK A01 T02130157  RH  070%=      5-min Rain = 0
KTAS 150706Z 19013KT 21/16 A2995 RMK A01 T02130156  RH  070%=      5-min Rain = 0
KTAS 150707Z 19014KT 21/16 A2995 RMK A01 T02120156  RH  070%=      5-min Rain = 0
KTAS 150708Z 20012G18KT 21/16 A2995 RMK A01 T02120156  RH  070%=      5-min Rain = 0
KTAS 150709Z 19015KT 21/16 A2995 RMK A01 T02120156  RH  071%=      5-min Rain = 0
KTAS 150710Z 20013KT 21/16 A2995 RMK A01 T02120156  RH  071%=      5-min Rain = 0
KTAS 150711Z 20012KT 21/16 A2995 RMK A01 T02120156  RH  071%=      5-min Rain = 0
KTAS 150712Z 20014KT 21/16 A2995 RMK A01 T02110156  RH  071%=      5-min Rain = 0
KTAS 150713Z 20015KT 21/16 A2995 RMK A01 T02110157  RH  071%=      5-min Rain = 0
KTAS 150714Z 20013KT 21/16 A2995 RMK A01 T02120157  RH  071%=      5-min Rain = 0
KTAS 150715Z 19013KT 21/16 A2995 RMK A01 T02110156  RH  071%=      5-min Rain = 0
KTAS 150716Z 19014KT 21/16 A2995 RMK A01 T02110157  RH  071%=      5-min Rain = 0
KTAS 150717Z 19013KT 21/16 A2995 RMK A01 T02110157  RH  071%=      5-min Rain = 0
KTAS 150718Z 19013KT 21/16 A2995 RMK A01 T02110156  RH  071%=      5-min Rain = 0
KTAS 150719Z 19013KT 21/16 A2995 RMK A01 T02100156  RH  071%=      5-min Rain = 0
KTAS 150720Z 19014KT 21/16 A2995 RMK A01 T02100157  RH  071%=      5-min Rain = 0
KTAS 150721Z 19014G20KT 21/16 A2995 RMK A01 T02110157  RH  071%=      5-min Rain = 0
KTAS 150722Z 19013KT 21/16 A2995 RMK A01 T02100157  RH  071%=      5-min Rain = 0
KTAS 150723Z 19013KT 21/16 A2995 RMK A01 T02100156  RH  071%=      5-min Rain = 0
KTAS 150724Z 20012G18KT 21/16 A2995 RMK A01 T02100157  RH  071%=      5-min Rain = 0
KTAS 150725Z 20013KT 21/16 A2994 RMK A01 T02100157  RH  071%=      5-min Rain = 0
KTAS 150726Z 19013KT 21/16 A2995 RMK A01 T02100156  RH  071%=      5-min Rain = 0
KTAS 150727Z 19012G17KT 21/16 A2995 RMK A01 T02100156  RH  071%=      5-min Rain = 0
KTAS 150728Z 20015KT 21/16 A2995 RMK A01 T02100157  RH  072%=      5-min Rain = 0
KTAS 150729Z 20015KT 21/16 A2995 RMK A01 T02100157  RH  071%=      5-min Rain = 0
KTAS 150730Z 19014KT 21/16 A2995 RMK A01 T02110157  RH  071%=      5-min Rain = 0
KTAS 150731Z 19015KT 21/16 A2995 RMK A01 T02100156  RH  071%=      5-min Rain = 0
KTAS 150732Z 19015KT 21/16 A2995 RMK A01 T02100157  RH  071%=      5-min Rain = 0
KTAS 150733Z 18015KT 21/16 A2995 RMK A01 T02100156  RH  071%=      5-min Rain = 0
KTAS 150734Z 18013G18KT 21/16 A2995 RMK A01 T02100156  RH  071%=      5-min Rain = 0
KTAS 150735Z 18016KT 21/16 A2995 RMK A01 T02100157  RH  072%=      5-min Rain = 0
KTAS 150736Z 18017KT 21/16 A2995 RMK A01 T02100157  RH  071%=      5-min Rain = 0
KTAS 150737Z 18015KT 21/16 A2995 RMK A01 T02100157  RH  071%=      5-min Rain = 0
KTAS 150738Z 17016KT 21/16 A2995 RMK A01 T02100156  RH  071%=      5-min Rain = 0
KTAS 150739Z 18016KT 21/16 A2995 RMK A01 T02100156  RH  071%=      5-min Rain = 0
KTAS 150740Z 17017KT 21/16 A2995 RMK A01 T02100157  RH  072%=      5-min Rain = 0
KTAS 150741Z 18015KT 21/16 A2995 RMK A01 T02100157  RH  072%=      5-min Rain = 0
KTAS 150742Z 18015KT 21/16 A2995 RMK A01 T02100156  RH  072%=      5-min Rain = 0
KTAS 150743Z 18015KT 21/16 A2995 RMK A01 T02090157  RH  072%=      5-min Rain = 0
KTAS 150744Z 17013KT 21/16 A2995 RMK A01 T02090157  RH  072%=      5-min Rain = 0
KTAS 150745Z 17014KT 21/16 A2995 RMK A01 T02080156  RH  072%=      5-min Rain = 0
KTAS 150746Z 18013KT 21/16 A2995 RMK A01 T02080156  RH  072%=      5-min Rain = 0
KTAS 150747Z 18015KT 21/16 A2995 RMK A01 T02080157  RH  072%=      5-min Rain = 0
KTAS 150748Z 18013KT 21/16 A2995 RMK A01 T02080157  RH  072%=      5-min Rain = 0
KTAS 150749Z 18013KT 21/16 A2995 RMK A01 T02080157  RH  072%=      5-min Rain = 0
KTAS 150750Z 18013KT 21/16 A2996 RMK A01 T02080157  RH  073%=      5-min Rain = 0
KTAS 150751Z 18013KT 21/16 A2996 RMK A01 T02070157  RH  073%=      5-min Rain = 0
KTAS 150752Z 18013KT 21/16 A2995 RMK A01 T02070157  RH  073%=      5-min Rain = 0
KTAS 150753Z 17014KT 21/16 A2995 RMK A01 T02070157  RH  073%=      5-min Rain = 0
KTAS 150754Z 18014G19KT 21/16 A2995 RMK A01 T02070157  RH  073%=      5-min Rain = 0
KTAS 150755Z 17012KT 21/16 A2995 RMK A01 T02070157  RH  073%=      5-min Rain = 0
KTAS 150756Z 18015KT 21/16 A2995 RMK A01 T02060157  RH  073%=      5-min Rain = 0
KTAS 150757Z 18013KT 21/16 A2995 RMK A01 T02060157  RH  073%=      5-min Rain = 0
KTAS 150758Z 18011G16KT 21/16 A2995 RMK A01 T02060157  RH  074%=      5-min Rain = 0
KTAS 150759Z 18013KT 21/16 A2995 RMK A01 T02060158  RH  074%=      5-min Rain = 0
KTAS 150800Z 18013KT 21/16 A2995 RMK A01 T02060158  RH  074%=      5-min Rain = 0
KTAS 150801Z 18012KT 21/16 A2996 RMK A01 T02060158  RH  074%=      5-min Rain = 0
KTAS 150802Z 18012KT 21/16 A2996 RMK A01 T02060158  RH  074%=      5-min Rain = 0
KTAS 150803Z 18014G20KT 21/16 A2996 RMK A01 T02060158  RH  074%=      5-min Rain = 0
KTAS 150804Z 17013KT 21/16 A2996 RMK A01 T02060158  RH  074%=      5-min Rain = 0
KTAS 150805Z 18012KT 21/16 A2996 RMK A01 T02060158  RH  074%=      5-min Rain = 0
KTAS 150806Z 18012KT 21/16 A2996 RMK A01 T02060158  RH  074%=      5-min Rain = 0
KTAS 150807Z 18014G19KT 21/16 A2995 RMK A01 T02060159  RH  074%=      5-min Rain = 0
KTAS 150808Z 18011KT 21/16 A2995 RMK A01 T02060159  RH  074%=      5-min Rain = 0
KTAS 150809Z 18010KT 21/16 A2995 RMK A01 T02050158  RH  074%=      5-min Rain = 0
KTAS 150810Z 19010KT 21/16 A2995 RMK A01 T02050158  RH  075%=      5-min Rain = 0
KTAS 150811Z 18010KT 20/16 A2995 RMK A01 T02040158  RH  075%=      5-min Rain = 0
KTAS 150812Z 18013KT 20/16 A2995 RMK A01 T02040158  RH  075%=      5-min Rain = 0
KTAS 150813Z 18011KT 20/16 A2995 RMK A01 T02040159  RH  075%=      5-min Rain = 0
KTAS 150814Z 18013KT 20/16 A2995 RMK A01 T02040159  RH  075%=      5-min Rain = 0
KTAS 150815Z 18011KT 20/16 A2995 RMK A01 T02040159  RH  075%=      5-min Rain = 0
KTAS 150816Z 18010KT 20/16 A2995 RMK A01 T02040158  RH  075%=      5-min Rain = 0
KTAS 150817Z 19013KT 20/16 A2995 RMK A01 T02040159  RH  075%=      5-min Rain = 0
KTAS 150818Z 19013KT 20/16 A2995 RMK A01 T02040159  RH  075%=      5-min Rain = 0
KTAS 150819Z 19011KT 20/16 A2995 RMK A01 T02040159  RH  075%=      5-min Rain = 0
KTAS 150820Z 18009KT 20/16 A2995 RMK A01 T02030158  RH  075%=      5-min Rain = 0
KTAS 150821Z 18009KT 20/16 A2995 RMK A01 T02030158  RH  075%=      5-min Rain = 0
KTAS 150822Z 18012KT 20/16 A2995 RMK A01 T02020158  RH  076%=      5-min Rain = 0
KTAS 150823Z 18012KT 20/16 A2995 RMK A01 T02020159  RH  076%=      5-min Rain = 0
KTAS 150824Z 18011KT 20/16 A2995 RMK A01 T02030159  RH  076%=      5-min Rain = 0
KTAS 150825Z 18009KT 20/16 A2995 RMK A01 T02020158  RH  076%=      5-min Rain = 0
KTAS 150826Z 18010KT 20/16 A2995 RMK A01 T02020158  RH  076%=      5-min Rain = 0
KTAS 150827Z 19008KT 20/16 A2995 RMK A01 T02010158  RH  076%=      5-min Rain = 0
KTAS 150828Z 20008KT 20/16 A2995 RMK A01 T02010158  RH  076%=      5-min Rain = 0
KTAS 150829Z 20008KT 20/16 A2995 RMK A01 T02000158  RH  077%=      5-min Rain = 0
KTAS 150830Z 19008KT 20/16 A2995 RMK A01 T02000158  RH  077%=      5-min Rain = 0
KTAS 150831Z 19010KT 20/16 A2995 RMK A01 T02010159  RH  077%=      5-min Rain = 0
KTAS 150832Z 19012KT 20/16 A2995 RMK A01 T02010159  RH  077%=      5-min Rain = 0
KTAS 150833Z 20010KT 20/16 A2995 RMK A01 T02010159  RH  077%=      5-min Rain = 0
KTAS 150834Z 20010KT 20/16 A2995 RMK A01 T02020159  RH  077%=      5-min Rain = 0
KTAS 150835Z 19011KT 20/16 A2995 RMK A01 T02020159  RH  077%=      5-min Rain = 0
KTAS 150836Z 19010KT 20/16 A2995 RMK A01 T02020160  RH  077%=      5-min Rain = 0
KTAS 150837Z 20010KT 20/16 A2995 RMK A01 T02010159  RH  077%=      5-min Rain = 0
KTAS 150838Z 20012KT 20/16 A2995 RMK A01 T02010160  RH  077%=      5-min Rain = 0
KTAS 150839Z 20010G16KT 20/16 A2995 RMK A01 T02020161  RH  077%=      5-min Rain = 0
KTAS 150840Z 19009KT 20/16 A2995 RMK A01 T02020160  RH  077%=      5-min Rain = 0
KTAS 150841Z 20012KT 20/16 A2995 RMK A01 T02010160  RH  077%=      5-min Rain = 0
KTAS 150842Z 19010KT 20/16 A2995 RMK A01 T02010161  RH  078%=      5-min Rain = 0
KTAS 150843Z 19009KT 20/16 A2995 RMK A01 T02010161  RH  078%=      5-min Rain = 0
KTAS 150844Z 20009KT 20/16 A2995 RMK A01 T02010161  RH  078%=      5-min Rain = 0
KTAS 150845Z 20010G15KT 20/16 A2995 RMK A01 T02000161  RH  078%=      5-min Rain = 0
KTAS 150846Z 20010KT 20/16 A2995 RMK A01 T02000161  RH  078%=      5-min Rain = 0
KTAS 150847Z 19012KT 20/16 A2995 RMK A01 T02000162  RH  078%=      5-min Rain = 0
KTAS 150848Z 19011KT 20/16 A2995 RMK A01 T02010163  RH  079%=      5-min Rain = 0
KTAS 150849Z 19011KT 20/16 A2995 RMK A01 T02010163  RH  079%=      5-min Rain = 0
KTAS 150850Z 19013G18KT 20/16 A2995 RMK A01 T02010163  RH  079%=      5-min Rain = 0
KTAS 150851Z 19011KT 20/16 A2995 RMK A01 T02020164  RH  079%=      5-min Rain = 0
KTAS 150852Z 19011KT 20/16 A2995 RMK A01 T02010164  RH  079%=      5-min Rain = 0
KTAS 150853Z 19011KT 20/16 A2995 RMK A01 T02010164  RH  079%=      5-min Rain = 0
KTAS 150854Z 18012KT 20/16 A2995 RMK A01 T02010164  RH  079%=      5-min Rain = 0
KTAS 150855Z 19012KT 20/16 A2995 RMK A01 T02010164  RH  079%=      5-min Rain = 0
KTAS 150856Z 19011KT 20/16 A2995 RMK A01 T02010164  RH  079%=      5-min Rain = 0
KTAS 150857Z 19011KT 20/17 A2995 RMK A01 T02010165  RH  080%=      5-min Rain = 0
KTAS 150858Z 19010KT 20/17 A2995 RMK A01 T02010165  RH  080%=      5-min Rain = 0
KTAS 150859Z 19011KT 20/17 A2995 RMK A01 T02010165  RH  080%=      5-min Rain = 0
KTAS 150900Z 18010KT 20/17 A2995 RMK A01 T02010165  RH  080%=      5-min Rain = 0
KTAS 150901Z 19010KT 20/17 A2995 RMK A01 T02010165  RH  080%=      5-min Rain = 0
KTAS 150902Z 19010KT 20/17 A2995 RMK A01 T02000165  RH  080%=      5-min Rain = 0
KTAS 150903Z 19009KT 20/17 A2995 RMK A01 T02000165  RH  080%=      5-min Rain = 0
KTAS 150904Z 19010KT 20/17 A2995 RMK A01 T02000165  RH  080%=      5-min Rain = 0
KTAS 150905Z 19011KT 20/17 A2995 RMK A01 T02000166  RH  081%=      5-min Rain = 0
KTAS 150906Z 19010KT 20/17 A2995 RMK A01 T02000166  RH  081%=      5-min Rain = 0
KTAS 150907Z 19011KT 20/17 A2995 RMK A01 T02000166  RH  081%=      5-min Rain = 0
KTAS 150908Z 19011KT 20/17 A2995 RMK A01 T02000167  RH  081%=      5-min Rain = 0
KTAS 150909Z 19015KT 20/17 A2995 RMK A01 T02010167  RH  081%=      5-min Rain = 0
KTAS 150910Z 19014KT 20/17 A2995 RMK A01 T02020168  RH  081%=      5-min Rain = 0
KTAS 150911Z 20012G17KT 20/17 A2995 RMK A01 T02020168  RH  081%=      5-min Rain = 0
KTAS 150912Z 20012KT 20/17 A2995 RMK A01 T02020168  RH  081%=      5-min Rain = 0
KTAS 150913Z 19013KT 20/17 A2995 RMK A01 T02020168  RH  081%=      5-min Rain = 0
KTAS 150914Z 19012KT 20/17 A2995 RMK A01 T02020168  RH  081%=      5-min Rain = 0
KTAS 150915Z 19013G18KT 20/17 A2995 RMK A01 T02020168  RH  081%=      5-min Rain = 0
KTAS 150916Z 19011KT 20/17 A2994 RMK A01 T02020168  RH  081%=      5-min Rain = 0
KTAS 150917Z 19015G20KT 20/17 A2994 RMK A01 T02030169  RH  081%=      5-min Rain = 0
KTAS 150918Z 19015KT 20/17 A2994 RMK A01 T02030169  RH  081%=      5-min Rain = 0
KTAS 150919Z 20015KT 20/17 A2994 RMK A01 T02040170  RH  081%=      5-min Rain = 0
KTAS 150920Z 19011KT 20/17 A2995 RMK A01 T02040169  RH  080%=      5-min Rain = 0
KTAS 150921Z 19011KT 20/17 A2995 RMK A01 T02030169  RH  080%=      5-min Rain = 0
KTAS 150922Z 19013KT 20/17 A2995 RMK A01 T02030169  RH  081%=      5-min Rain = 0
KTAS 150923Z 20012KT 20/17 A2995 RMK A01 T02030169  RH  081%=      5-min Rain = 0
KTAS 150924Z 19014KT 20/17 A2995 RMK A01 T02030169  RH  081%=      5-min Rain = 0
KTAS 150925Z 19012KT 20/17 A2995 RMK A01 T02030169  RH  081%=      5-min Rain = 0
KTAS 150926Z 19015KT 20/17 A2995 RMK A01 T02030169  RH  081%=      5-min Rain = 0
KTAS 150927Z 19013KT 20/17 A2995 RMK A01 T02040169  RH  081%=      5-min Rain = 0
KTAS 150928Z 20011KT 20/17 A2995 RMK A01 T02030169  RH  081%=      5-min Rain = 0
KTAS 150929Z 19010KT 20/17 A2995 RMK A01 T02030169  RH  081%=      5-min Rain = 0
KTAS 150930Z 19011G18KT 20/17 A2995 RMK A01 T02030169  RH  081%=      5-min Rain = 0
KTAS 150931Z 19011KT 20/17 A2995 RMK A01 T02030169  RH  081%=      5-min Rain = 0
KTAS 150932Z 19012KT 20/17 A2995 RMK A01 T02030169  RH  081%=      5-min Rain = 0
KTAS 150933Z 19014KT 20/17 A2995 RMK A01 T02030169  RH  081%=      5-min Rain = 0
KTAS 150934Z 19011KT 20/17 A2995 RMK A01 T02030169  RH  081%=      5-min Rain = 0
KTAS 150935Z 19009KT 20/17 A2995 RMK A01 T02030169  RH  081%=      5-min Rain = 0
KTAS 150936Z 19011KT 20/17 A2995 RMK A01 T02030169  RH  081%=      5-min Rain = 0
KTAS 150937Z 19011KT 20/17 A2995 RMK A01 T02030169  RH  081%=      5-min Rain = 0
KTAS 150938Z 19011KT 20/17 A2995 RMK A01 T02030169  RH  081%=      5-min Rain = 0
KTAS 150939Z 20010KT 20/17 A2995 RMK A01 T02020169  RH  081%=      5-min Rain = 0
KTAS 150940Z 19012KT 20/17 A2995 RMK A01 T02020169  RH  081%=      5-min Rain = 0
KTAS 150941Z 19012KT 20/17 A2995 RMK A01 T02020169  RH  081%=      5-min Rain = 0
KTAS 150942Z 19010KT 20/17 A2995 RMK A01 T02030169  RH  081%=      5-min Rain = 0
KTAS 150943Z 20010KT 20/17 A2995 RMK A01 T02020168  RH  081%=      5-min Rain = 0
KTAS 150944Z 19012KT 20/17 A2995 RMK A01 T02020168  RH  081%=      5-min Rain = 0
KTAS 150945Z 20011KT 20/17 A2995 RMK A01 T02020169  RH  081%=      5-min Rain = 0
KTAS 150946Z 19012KT 20/17 A2995 RMK A01 T02030169  RH  081%=      5-min Rain = 0
KTAS 150947Z 20010KT 20/17 A2995 RMK A01 T02030168  RH  081%=      5-min Rain = 0
KTAS 150948Z 19010KT 20/17 A2995 RMK A01 T02020168  RH  081%=      5-min Rain = 0
KTAS 150949Z 19011KT 20/17 A2995 RMK A01 T02020168  RH  081%=      5-min Rain = 0
KTAS 150950Z 19012KT 20/17 A2995 RMK A01 T02020168  RH  081%=      5-min Rain = 0
KTAS 150951Z 20009KT 20/17 A2995 RMK A01 T02020168  RH  081%=      5-min Rain = 0
KTAS 150952Z 18012KT 20/17 A2995 RMK A01 T02010168  RH  081%=      5-min Rain = 0
KTAS 150953Z 19008KT 20/17 A2995 RMK A01 T02010167  RH  081%=      5-min Rain = 0
KTAS 150954Z 18009KT 20/17 A2995 RMK A01 T02010167  RH  081%=      5-min Rain = 0
KTAS 150955Z 19010KT 20/17 A2995 RMK A01 T02010167  RH  081%=      5-min Rain = 0
KTAS 150956Z 18010KT 20/17 A2995 RMK A01 T02000167  RH  081%=      5-min Rain = 0
KTAS 150957Z 18012KT 20/17 A2995 RMK A01 T02010168  RH  081%=      5-min Rain = 0
KTAS 150958Z 18009KT 20/17 A2995 RMK A01 T02010167  RH  081%=      5-min Rain = 0
KTAS 150959Z 18009KT 20/17 A2995 RMK A01 T02000167  RH  081%=      5-min Rain = 0
KTAS 151000Z 18009KT 20/17 A2995 RMK A01 T02000167  RH  081%=      5-min Rain = 0
KTAS 151001Z 18010KT 20/17 A2995 RMK A01 T02000167  RH  081%=      5-min Rain = 0
KTAS 151002Z 18010KT 20/17 A2995 RMK A01 T02000167  RH  081%=      5-min Rain = 0
KTAS 151003Z 18008KT 20/17 A2995 RMK A01 T02000167  RH  081%=      5-min Rain = 0
KTAS 151004Z 18010KT 20/17 A2995 RMK A01 T01990167  RH  081%=      5-min Rain = 0
KTAS 151005Z 18010KT 20/17 A2995 RMK A01 T01990167  RH  082%=      5-min Rain = 0
KTAS 151006Z 18011KT 20/17 A2995 RMK A01 T02000167  RH  081%=      5-min Rain = 0
KTAS 151007Z 18009KT 20/17 A2995 RMK A01 T02000167  RH  081%=      5-min Rain = 0
KTAS 151008Z 19008KT 20/17 A2995 RMK A01 T01990167  RH  081%=      5-min Rain = 0
KTAS 151009Z 18008KT 20/17 A2995 RMK A01 T01990166  RH  081%=      5-min Rain = 0
KTAS 151010Z 19010KT 20/17 A2995 RMK A01 T01980166  RH  082%=      5-min Rain = 0
KTAS 151011Z 18010KT 20/17 A2995 RMK A01 T01980166  RH  082%=      5-min Rain = 0
KTAS 151012Z 19008KT 20/17 A2995 RMK A01 T01980166  RH  082%=      5-min Rain = 0
KTAS 151013Z 19009KT 20/17 A2995 RMK A01 T01980166  RH  082%=      5-min Rain = 0
KTAS 151014Z 19008KT 20/17 A2995 RMK A01 T01980166  RH  082%=      5-min Rain = 0
KTAS 151015Z 19008KT 20/17 A2995 RMK A01 T01970166  RH  082%=      5-min Rain = 0
KTAS 151016Z 19008KT 20/17 A2995 RMK A01 T01970165  RH  082%=      5-min Rain = 0
KTAS 151017Z 19009KT 20/17 A2995 RMK A01 T01970166  RH  082%=      5-min Rain = 0
KTAS 151018Z 19009KT 20/17 A2995 RMK A01 T01970166  RH  082%=      5-min Rain = 0
KTAS 151019Z 19009KT 20/17 A2995 RMK A01 T01970166  RH  082%=      5-min Rain = 0
KTAS 151020Z 19008KT 20/17 A2995 RMK A01 T01980167  RH  082%=      5-min Rain = 0
KTAS 151021Z 19010KT 20/17 A2995 RMK A01 T01980167  RH  082%=      5-min Rain = 0
KTAS 151022Z 19009KT 20/17 A2995 RMK A01 T01980167  RH  082%=      5-min Rain = 0
KTAS 151023Z 19012KT 20/17 A2995 RMK A01 T01980167  RH  082%=      5-min Rain = 0
KTAS 151024Z 19009KT 20/17 A2995 RMK A01 T01990167  RH  082%=      5-min Rain = 0
KTAS 151025Z 19010KT 20/17 A2995 RMK A01 T01990166  RH  082%=      5-min Rain = 0
KTAS 151026Z 19010KT 20/17 A2995 RMK A01 T01980166  RH  082%=      5-min Rain = 0
KTAS 151027Z 19010KT 20/17 A2995 RMK A01 T01980166  RH  082%=      5-min Rain = 0
KTAS 151028Z 19011KT 20/17 A2995 RMK A01 T01980166  RH  082%=      5-min Rain = 0
KTAS 151029Z 19010KT 20/17 A2995 RMK A01 T01980166  RH  082%=      5-min Rain = 0
KTAS 151030Z 20009KT 20/17 A2995 RMK A01 T01980166  RH  082%=      5-min Rain = 0
KTAS 151031Z 20008KT 20/17 A2995 RMK A01 T01970165  RH  082%=      5-min Rain = 0
KTAS 151032Z 20010KT 20/17 A2995 RMK A01 T01970165  RH  082%=      5-min Rain = 0
KTAS 151033Z 20009KT 20/17 A2995 RMK A01 T01970165  RH  082%=      5-min Rain = 0
KTAS 151034Z 20009KT 20/17 A2995 RMK A01 T01960165  RH  082%=      5-min Rain = 0
KTAS 151035Z 20013KT 20/17 A2995 RMK A01 T01960166  RH  082%=      5-min Rain = 0
KTAS 151036Z 19013KT 20/17 A2995 RMK A01 T01980167  RH  082%=      5-min Rain = 0
KTAS 151037Z 19013KT 20/17 A2995 RMK A01 T01980166  RH  082%=      5-min Rain = 0
KTAS 151038Z 20012KT 20/17 A2995 RMK A01 T01980166  RH  082%=      5-min Rain = 0
KTAS 151039Z 20010KT 20/17 A2995 RMK A01 T01980166  RH  082%=      5-min Rain = 0
KTAS 151040Z 20012KT 20/17 A2995 RMK A01 T01980165  RH  081%=      5-min Rain = 0
KTAS 151041Z 19014KT 20/17 A2995 RMK A01 T01980165  RH  082%=      5-min Rain = 0
KTAS 151042Z 20010KT 20/17 A2995 RMK A01 T01980165  RH  081%=      5-min Rain = 0
KTAS 151043Z 19011KT 20/17 A2995 RMK A01 T01980165  RH  081%=      5-min Rain = 0
KTAS 151044Z 19012KT 20/17 A2995 RMK A01 T01980165  RH  081%=      5-min Rain = 0
KTAS 151045Z 20010KT 20/17 A2995 RMK A01 T01980165  RH  081%=      5-min Rain = 0
KTAS 151046Z 20011KT 20/17 A2995 RMK A01 T01990166  RH  081%=      5-min Rain = 0
KTAS 151047Z 20010KT 20/17 A2995 RMK A01 T01990166  RH  081%=      5-min Rain = 0
KTAS 151048Z 20011KT 20/17 A2995 RMK A01 T02000166  RH  081%=      5-min Rain = 0
KTAS 151049Z 20012G17KT 20/17 A2995 RMK A01 T02000166  RH  081%=      5-min Rain = 0
KTAS 151050Z 20012KT 20/17 A2995 RMK A01 T02010166  RH  080%=      5-min Rain = 0
KTAS 151051Z 20011KT 20/17 A2995 RMK A01 T02010165  RH  080%=      5-min Rain = 0
KTAS 151052Z 20010KT 20/17 A2995 RMK A01 T02010165  RH  080%=      5-min Rain = 0
KTAS 151053Z 20011KT 20/17 A2995 RMK A01 T02010165  RH  080%=      5-min Rain = 0
KTAS 151054Z 20010G15KT 20/16 A2995 RMK A01 T02000164  RH  080%=      5-min Rain = 0
KTAS 151055Z 20010KT 20/16 A2995 RMK A01 T02000164  RH  080%=      5-min Rain = 0
KTAS 151056Z 20012KT 20/16 A2995 RMK A01 T01990164  RH  080%=      5-min Rain = 0
KTAS 151057Z 20013KT 20/16 A2995 RMK A01 T01990164  RH  080%=      5-min Rain = 0
KTAS 151058Z 20013KT 20/16 A2995 RMK A01 T01990164  RH  080%=      5-min Rain = 0
KTAS 151059Z 20011KT 20/16 A2995 RMK A01 T01990164  RH  080%=      5-min Rain = 0
KTAS 151100Z 20010KT 20/16 A2995 RMK A01 T01980164  RH  080%=      5-min Rain = 0
KTAS 151101Z 20011KT 20/16 A2995 RMK A01 T01980163  RH  081%=      5-min Rain = 0
KTAS 151102Z 21013KT 20/16 A2995 RMK A01 T01980164  RH  081%=      5-min Rain = 0
KTAS 151103Z 21012KT 20/16 A2995 RMK A01 T01980164  RH  081%=      5-min Rain = 0
KTAS 151104Z 21013KT 20/17 A2994 RMK A01 T01980165  RH  081%=      5-min Rain = 0
KTAS 151105Z 21012KT 20/17 A2995 RMK A01 T01980165  RH  081%=      5-min Rain = 0
KTAS 151106Z 21010KT 20/16 A2995 RMK A01 T01980164  RH  081%=      5-min Rain = 0
KTAS 151107Z 20012KT 20/16 A2994 RMK A01 T01970164  RH  081%=      5-min Rain = 0
KTAS 151108Z 21011KT 20/16 A2994 RMK A01 T01970164  RH  081%=      5-min Rain = 0
KTAS 151109Z 21011KT 20/16 A2994 RMK A01 T01970164  RH  081%=      5-min Rain = 0
KTAS 151110Z 21010KT 20/16 A2994 RMK A01 T01970164  RH  081%=      5-min Rain = 0
KTAS 151111Z 21012KT 20/16 A2994 RMK A01 T01970164  RH  082%=      5-min Rain = 0
KTAS 151112Z 21012KT 20/16 A2994 RMK A01 T01970164  RH  082%=      5-min Rain = 0
KTAS 151113Z 20011KT 20/16 A2994 RMK A01 T01960164  RH  082%=      5-min Rain = 0
KTAS 151114Z 21011KT 20/16 A2994 RMK A01 T01960164  RH  082%=      5-min Rain = 0
KTAS 151115Z 21011KT 20/16 A2994 RMK A01 T01960164  RH  082%=      5-min Rain = 0
KTAS 151116Z 21012KT 20/16 A2995 RMK A01 T01960164  RH  082%=      5-min Rain = 0
KTAS 151117Z 21011KT 20/16 A2995 RMK A01 T01960164  RH  082%=      5-min Rain = 0
KTAS 151118Z 21012KT 20/16 A2995 RMK A01 T01950164  RH  082%=      5-min Rain = 0
KTAS 151119Z 21011KT 20/17 A2995 RMK A01 T01950165  RH  082%=      5-min Rain = 0
KTAS 151120Z 22012KT 20/17 A2995 RMK A01 T01950165  RH  082%=      5-min Rain = 0
KTAS 151121Z 21012KT 20/17 A2995 RMK A01 T01950165  RH  082%=      5-min Rain = 0
KTAS 151122Z 21013KT 20/17 A2995 RMK A01 T01950165  RH  082%=      5-min Rain = 0
KTAS 151123Z 21012KT 20/17 A2995 RMK A01 T01960165  RH  083%=      5-min Rain = 0
KTAS 151124Z 21011KT 20/17 A2995 RMK A01 T01950165  RH  082%=      5-min Rain = 0
KTAS 151125Z 21012KT 20/16 A2995 RMK A01 T01950164  RH  083%=      5-min Rain = 0
KTAS 151126Z 21011KT 20/17 A2994 RMK A01 T01950165  RH  083%=      5-min Rain = 0
KTAS 151127Z 21009KT 20/16 A2995 RMK A01 T01950164  RH  083%=      5-min Rain = 0
KTAS 151128Z 21010KT 19/16 A2994 RMK A01 T01940164  RH  083%=      5-min Rain = 0
KTAS 151129Z 21011KT 19/16 A2994 RMK A01 T01940164  RH  083%=      5-min Rain = 0
KTAS 151130Z 21010KT 19/16 A2994 RMK A01 T01940164  RH  083%=      5-min Rain = 0
KTAS 151131Z 21011KT 19/16 A2994 RMK A01 T01940164  RH  083%=      5-min Rain = 0
KTAS 151132Z 21011KT 19/17 A2994 RMK A01 T01940165  RH  083%=      5-min Rain = 0
KTAS 151133Z 21011KT 19/16 A2994 RMK A01 T01940164  RH  083%=      5-min Rain = 0
KTAS 151134Z 21011KT 19/17 A2994 RMK A01 T01930165  RH  083%=      5-min Rain = 0
KTAS 151135Z 21009KT 19/16 A2994 RMK A01 T01930164  RH  083%=      5-min Rain = 0
KTAS 151136Z 21009KT 19/16 A2994 RMK A01 T01930164  RH  083%=      5-min Rain = 0
KTAS 151137Z 21010KT 19/16 A2994 RMK A01 T01920164  RH  084%=      5-min Rain = 0
KTAS 151138Z 21011KT 19/16 A2994 RMK A01 T01920164  RH  084%=      5-min Rain = 0
KTAS 151139Z 21008KT 19/16 A2994 RMK A01 T01920164  RH  084%=      5-min Rain = 0
KTAS 151140Z 21009KT 19/16 A2994 RMK A01 T01920164  RH  084%=      5-min Rain = 0
KTAS 151141Z 21009KT 19/16 A2994 RMK A01 T01910164  RH  084%=      5-min Rain = 0
KTAS 151142Z 22010KT 19/16 A2994 RMK A01 T01910164  RH  084%=      5-min Rain = 0
KTAS 151143Z 21009KT 19/16 A2994 RMK A01 T01910164  RH  084%=      5-min Rain = 0
KTAS 151144Z 22007KT 19/16 A2994 RMK A01 T01910164  RH  084%=      5-min Rain = 0
KTAS 151145Z 22009KT 19/16 A2994 RMK A01 T01900164  RH  084%=      5-min Rain = 0
KTAS 151146Z 21008KT 19/16 A2995 RMK A01 T01900163  RH  084%=      5-min Rain = 0
KTAS 151147Z 22009KT 19/16 A2995 RMK A01 T01900163  RH  084%=      5-min Rain = 0
KTAS 151148Z 22009KT 19/16 A2995 RMK A01 T01890163  RH  085%=      5-min Rain = 0
KTAS 151149Z 22008KT 19/16 A2995 RMK A01 T01890163  RH  085%=      5-min Rain = 0
KTAS 151150Z 22009KT 19/16 A2995 RMK A01 T01890163  RH  085%=      5-min Rain = 0
KTAS 151151Z 22008KT 19/16 A2995 RMK A01 T01880163  RH  085%=      5-min Rain = 0
KTAS 151152Z 22009KT 19/16 A2995 RMK A01 T01880163  RH  085%=      5-min Rain = 0
KTAS 151153Z 21009KT 19/16 A2995 RMK A01 T01880163  RH  085%=      5-min Rain = 0
KTAS 151154Z 21009KT 19/16 A2995 RMK A01 T01880163  RH  085%=      5-min Rain = 0
KTAS 151155Z 21008KT 19/16 A2995 RMK A01 T01880163  RH  085%=      5-min Rain = 0
KTAS 151156Z 22008KT 19/16 A2995 RMK A01 T01870163  RH  085%=      5-min Rain = 0
KTAS 151157Z 21009KT 19/16 A2995 RMK A01 T01870163  RH  086%=      5-min Rain = 0
KTAS 151158Z 21009KT 19/16 A2995 RMK A01 T01870163  RH  086%=      5-min Rain = 0
KTAS 151159Z 21009KT 19/16 A2995 RMK A01 T01870163  RH  086%=      5-min Rain = 0
KTAS 151200Z 21009KT 19/16 A2995 RMK A01 T01870163  RH  086%=      5-min Rain = 0
KTAS 151201Z 21009KT 19/16 A2995 RMK A01 T01870163  RH  086%=      5-min Rain = 0
KTAS 151202Z 21009KT 19/16 A2995 RMK A01 T01880164  RH  086%=      5-min Rain = 0
KTAS 151203Z 21008KT 19/16 A2995 RMK A01 T01870163  RH  086%=      5-min Rain = 0
KTAS 151204Z 21009KT 19/16 A2995 RMK A01 T01870163  RH  086%=      5-min Rain = 0
KTAS 151205Z 21008KT 19/16 A2995 RMK A01 T01870163  RH  086%=      5-min Rain = 0
KTAS 151206Z 21007KT 19/16 A2995 RMK A01 T01870163  RH  086%=      5-min Rain = 0
KTAS 151207Z 21008KT 19/16 A2995 RMK A01 T01870163  RH  086%=      5-min Rain = 0
KTAS 151208Z 21009KT 19/16 A2995 RMK A01 T01870163  RH  086%=      5-min Rain = 0
KTAS 151209Z 21007KT 19/16 A2995 RMK A01 T01870163  RH  086%=      5-min Rain = 0
KTAS 151210Z 21007KT 19/16 A2996 RMK A01 T01870163  RH  086%=      5-min Rain = 0
KTAS 151211Z 21007KT 19/16 A2996 RMK A01 T01870163  RH  086%=      5-min Rain = 0
KTAS 151212Z 21007KT 19/16 A2996 RMK A01 T01860162  RH  086%=      5-min Rain = 0
KTAS 151213Z 21007KT 19/16 A2996 RMK A01 T01860162  RH  086%=      5-min Rain = 0
KTAS 151214Z 21007KT 19/16 A2996 RMK A01 T01860162  RH  086%=      5-min Rain = 0
KTAS 151215Z 21007KT 19/16 A2996 RMK A01 T01860162  RH  086%=      5-min Rain = 0
KTAS 151216Z 22005KT 19/16 A2996 RMK A01 T01870163  RH  086%=      5-min Rain = 0
KTAS 151217Z 22005KT 19/16 A2996 RMK A01 T01860162  RH  086%=      5-min Rain = 0
KTAS 151218Z 22006KT 19/16 A2996 RMK A01 T01860162  RH  086%=      5-min Rain = 0
KTAS 151219Z 22006KT 19/16 A2996 RMK A01 T01860162  RH  086%=      5-min Rain = 0
KTAS 151220Z 22006KT 19/16 A2996 RMK A01 T01860163  RH  086%=      5-min Rain = 0
KTAS 151221Z 22006KT 19/16 A2996 RMK A01 T01860163  RH  086%=      5-min Rain = 0
KTAS 151222Z 22006KT 19/16 A2996 RMK A01 T01860163  RH  086%=      5-min Rain = 0
KTAS 151223Z 22005KT 19/16 A2996 RMK A01 T01870163  RH  086%=      5-min Rain = 0
KTAS 151224Z 22006KT 19/16 A2996 RMK A01 T01860163  RH  086%=      5-min Rain = 0
KTAS 151225Z 22006KT 19/16 A2996 RMK A01 T01870163  RH  086%=      5-min Rain = 0
KTAS 151226Z 22006KT 19/16 A2996 RMK A01 T01870164  RH  086%=      5-min Rain = 0
KTAS 151227Z 22006KT 19/16 A2996 RMK A01 T01870164  RH  086%=      5-min Rain = 0
KTAS 151228Z 23005KT 19/16 A2996 RMK A01 T01870164  RH  086%=      5-min Rain = 0
KTAS 151229Z 23005KT 19/16 A2996 RMK A01 T01880164  RH  086%=      5-min Rain = 0
KTAS 151230Z 23005KT 19/16 A2996 RMK A01 T01880164  RH  086%=      5-min Rain = 0
KTAS 151231Z 23006KT 19/17 A2996 RMK A01 T01880165  RH  086%=      5-min Rain = 0
KTAS 151232Z 23005KT 19/17 A2996 RMK A01 T01890165  RH  086%=      5-min Rain = 0
KTAS 151233Z 23006KT 19/17 A2996 RMK A01 T01890165  RH  086%=      5-min Rain = 0
KTAS 151234Z 23006KT 19/17 A2996 RMK A01 T01890165  RH  086%=      5-min Rain = 0
KTAS 151235Z 23005KT 19/17 A2996 RMK A01 T01890165  RH  086%=      5-min Rain = 0
KTAS 151236Z 23005KT 19/17 A2996 RMK A01 T01900165  RH  086%=      5-min Rain = 0
KTAS 151237Z 23007KT 19/17 A2996 RMK A01 T01900165  RH  086%=      5-min Rain = 0
KTAS 151238Z 23006KT 19/17 A2996 RMK A01 T01900165  RH  086%=      5-min Rain = 0
KTAS 151239Z 23007KT 19/17 A2996 RMK A01 T01900165  RH  085%=      5-min Rain = 0
KTAS 151240Z 22006KT 19/17 A2996 RMK A01 T01910166  RH  085%=      5-min Rain = 0
KTAS 151241Z 22006KT 19/17 A2997 RMK A01 T01910166  RH  085%=      5-min Rain = 0
KTAS 151242Z 23007KT 19/17 A2997 RMK A01 T01920166  RH  085%=      5-min Rain = 0
KTAS 151243Z 23007KT 19/17 A2997 RMK A01 T01920166  RH  085%=      5-min Rain = 0
KTAS 151244Z 22007KT 19/17 A2997 RMK A01 T01920166  RH  085%=      5-min Rain = 0
KTAS 151245Z 22007KT 19/17 A2997 RMK A01 T01930167  RH  085%=      5-min Rain = 0
KTAS 151246Z 23006KT 19/17 A2997 RMK A01 T01930167  RH  085%=      5-min Rain = 0
KTAS 151247Z 23007KT 19/17 A2997 RMK A01 T01940167  RH  084%=      5-min Rain = 0
KTAS 151248Z 23007KT 20/17 A2997 RMK A01 T01950168  RH  084%=      5-min Rain = 0
KTAS 151249Z 23006KT 20/17 A2997 RMK A01 T01950168  RH  084%=      5-min Rain = 0
KTAS 151250Z 23007KT 20/17 A2997 RMK A01 T01960168  RH  084%=      5-min Rain = 0
KTAS 151251Z 23007KT 20/17 A2997 RMK A01 T01960168  RH  084%=      5-min Rain = 0
KTAS 151252Z 22007KT 20/17 A2997 RMK A01 T01970168  RH  084%=      5-min Rain = 0
KTAS 151253Z 23010KT 20/17 A2997 RMK A01 T01970168  RH  083%=      5-min Rain = 0
KTAS 151254Z 22009KT 20/17 A2997 RMK A01 T01970168  RH  083%=      5-min Rain = 0
KTAS 151255Z 23007KT 20/17 A2997 RMK A01 T01980168  RH  083%=      5-min Rain = 0
KTAS 151256Z 23007G12KT 20/17 A2997 RMK A01 T01980169  RH  083%=      5-min Rain = 0
KTAS 151257Z 23009KT 20/17 A2997 RMK A01 T01990169  RH  083%=      5-min Rain = 0
KTAS 151258Z 23007KT 20/17 A2997 RMK A01 T02000169  RH  083%=      5-min Rain = 0
KTAS 151259Z 23008KT 20/17 A2997 RMK A01 T02000169  RH  082%=      5-min Rain = 0
KTAS 151300Z 23008KT 20/17 A2997 RMK A01 T02010170  RH  082%=      5-min Rain = 0
KTAS 151301Z 23008KT 20/17 A2997 RMK A01 T02010170  RH  082%=      5-min Rain = 0
KTAS 151302Z 23008KT 20/17 A2997 RMK A01 T02010170  RH  082%=      5-min Rain = 0
KTAS 151303Z 23009KT 20/17 A2997 RMK A01 T02020170  RH  082%=      5-min Rain = 0
KTAS 151304Z 23009KT 20/17 A2996 RMK A01 T02020170  RH  082%=      5-min Rain = 0
KTAS 151305Z 23009KT 20/17 A2996 RMK A01 T02030170  RH  082%=      5-min Rain = 0
KTAS 151306Z 24009KT 20/17 A2996 RMK A01 T02030171  RH  082%=      5-min Rain = 0
KTAS 151307Z 23010KT 20/17 A2996 RMK A01 T02040171  RH  081%=      5-min Rain = 0
KTAS 151308Z 23014KT 20/17 A2996 RMK A01 T02040171  RH  081%=      5-min Rain = 0
KTAS 151309Z 24013KT 20/17 A2996 RMK A01 T02040171  RH  081%=      5-min Rain = 0
KTAS 151310Z 24013KT 20/17 A2996 RMK A01 T02040171  RH  081%=      5-min Rain = 0
KTAS 151311Z 24012KT 21/17 A2996 RMK A01 T02050171  RH  081%=      5-min Rain = 0
KTAS 151312Z 23011KT 21/17 A2997 RMK A01 T02050171  RH  081%=      5-min Rain = 0
KTAS 151313Z 24011KT 21/17 A2996 RMK A01 T02060172  RH  081%=      5-min Rain = 0
KTAS 151314Z 24013KT 21/17 A2996 RMK A01 T02060173  RH  081%=      5-min Rain = 0
KTAS 151315Z 24011KT 21/17 A2996 RMK A01 T02060172  RH  081%=      5-min Rain = 0
KTAS 151316Z 24012KT 21/17 A2996 RMK A01 T02070173  RH  081%=      5-min Rain = 0
KTAS 151317Z 24012KT 21/17 A2996 RMK A01 T02070173  RH  081%=      5-min Rain = 0
KTAS 151318Z 25012KT 21/17 A2996 RMK A01 T02080173  RH  080%=      5-min Rain = 0
KTAS 151319Z 25013KT 21/17 A2996 RMK A01 T02080173  RH  080%=      5-min Rain = 0
KTAS 151320Z 24013KT 21/17 A2997 RMK A01 T02080173  RH  080%=      5-min Rain = 0
KTAS 151321Z 25015KT 21/17 A2997 RMK A01 T02090173  RH  080%=      5-min Rain = 0
KTAS 151322Z 24014KT 21/17 A2996 RMK A01 T02090174  RH  080%=      5-min Rain = 0
KTAS 151323Z 24013KT 21/17 A2997 RMK A01 T02090174  RH  080%=      5-min Rain = 0
KTAS 151324Z 24011KT 21/18 A2997 RMK A01 T02100175  RH  080%=      5-min Rain = 0
KTAS 151325Z 24013KT 21/18 A2997 RMK A01 T02110175  RH  080%=      5-min Rain = 0
KTAS 151326Z 24013KT 21/18 A2997 RMK A01 T02110175  RH  080%=      5-min Rain = 0
KTAS 151327Z 24010KT 21/18 A2997 RMK A01 T02130176  RH  079%=      5-min Rain = 0
KTAS 151328Z 24012KT 21/18 A2997 RMK A01 T02140176  RH  079%=      5-min Rain = 0
KTAS 151329Z 25012KT 21/18 A2997 RMK A01 T02140176  RH  079%=      5-min Rain = 0
KTAS 151330Z 24014KT 22/18 A2996 RMK A01 T02150176  RH  079%=      5-min Rain = 0
KTAS 151331Z 24015KT 22/18 A2996 RMK A01 T02150176  RH  079%=      5-min Rain = 0
KTAS 151332Z 24015KT 21/18 A2996 RMK A01 T02140176  RH  079%=      5-min Rain = 0
KTAS 151333Z 24015KT 21/18 A2996 RMK A01 T02140176  RH  079%=      5-min Rain = 0
KTAS 151334Z 24013G18KT 22/18 A2996 RMK A01 T02150176  RH  079%=      5-min Rain = 0
KTAS 151335Z 24016KT 22/18 A2997 RMK A01 T02160177  RH  078%=      5-min Rain = 0
KTAS 151336Z 24016KT 22/18 A2997 RMK A01 T02160176  RH  078%=      5-min Rain = 0
KTAS 151337Z 24015KT 22/18 A2997 RMK A01 T02160177  RH  078%=      5-min Rain = 0
KTAS 151338Z 25017KT 22/18 A2997 RMK A01 T02170177  RH  078%=      5-min Rain = 0
KTAS 151339Z 24014KT 22/18 A2997 RMK A01 T02170177  RH  078%=      5-min Rain = 0
KTAS 151340Z 25015KT 22/18 A2997 RMK A01 T02170177  RH  078%=      5-min Rain = 0
KTAS 151341Z 24015KT 22/18 A2997 RMK A01 T02180177  RH  078%=      5-min Rain = 0
KTAS 151342Z 24015KT 22/18 A2997 RMK A01 T02180177  RH  078%=      5-min Rain = 0
KTAS 151343Z 24014KT 22/18 A2997 RMK A01 T02190178  RH  077%=      5-min Rain = 0
KTAS 151344Z 24015KT 22/18 A2997 RMK A01 T02200178  RH  077%=      5-min Rain = 0
KTAS 151345Z 24014KT 22/18 A2997 RMK A01 T02200178  RH  077%=      5-min Rain = 0
KTAS 151346Z 24012G17KT 22/18 A2997 RMK A01 T02210179  RH  077%=      5-min Rain = 0
KTAS 151347Z 24018KT 22/18 A2996 RMK A01 T02220178  RH  076%=      5-min Rain = 0
KTAS 151348Z 24017KT 22/18 A2996 RMK A01 T02220177  RH  076%=      5-min Rain = 0
KTAS 151349Z 24018KT 22/18 A2996 RMK A01 T02220178  RH  076%=      5-min Rain = 0
KTAS 151350Z 24017KT 22/18 A2996 RMK A01 T02230178  RH  075%=      5-min Rain = 0
KTAS 151351Z 24015KT 22/18 A2996 RMK A01 T02240178  RH  075%=      5-min Rain = 0
KTAS 151352Z 24015KT 23/18 A2997 RMK A01 T02250179  RH  075%=      5-min Rain = 0
KTAS 151353Z 24017KT 23/18 A2996 RMK A01 T02260178  RH  074%=      5-min Rain = 0
KTAS 151354Z 24016KT 23/18 A2996 RMK A01 T02270178  RH  074%=      5-min Rain = 0
KTAS 151355Z 24014G20KT 23/18 A2996 RMK A01 T02280179  RH  074%=      5-min Rain = 0
KTAS 151356Z 24017KT 23/18 A2996 RMK A01 T02290178  RH  073%=      5-min Rain = 0
KTAS 151357Z 24015KT 23/18 A2996 RMK A01 T02280178  RH  073%=      5-min Rain = 0
KTAS 151358Z 23015KT 23/18 A2997 RMK A01 T02290179  RH  073%=      5-min Rain = 0
KTAS 151359Z 23014KT 23/18 A2997 RMK A01 T02310179  RH  073%=      5-min Rain = 0
KTAS 151400Z 24015KT 23/18 A2997 RMK A01 T02330180  RH  072%=      5-min Rain = 0
KTAS 151401Z 24016G22KT 23/18 A2997 RMK A01 T02320178  RH  072%=      5-min Rain = 0
KTAS 151402Z 24017KT 23/18 A2997 RMK A01 T02310178  RH  072%=      5-min Rain = 0
KTAS 151403Z 23018KT 23/18 A2997 RMK A01 T02310178  RH  072%=      5-min Rain = 0
KTAS 151404Z 24015KT 23/18 A2997 RMK A01 T02310178  RH  072%=      5-min Rain = 0
KTAS 151405Z 24016KT 23/18 A2997 RMK A01 T02310178  RH  072%=      5-min Rain = 0
KTAS 151406Z 24018KT 23/18 A2997 RMK A01 T02310178  RH  072%=      5-min Rain = 0
KTAS 151407Z 23015G20KT 23/18 A2997 RMK A01 T02320178  RH  071%=      5-min Rain = 0
KTAS 151408Z 23016KT 23/18 A2997 RMK A01 T02340177  RH  070%=      5-min Rain = 0
KTAS 151409Z 24015KT 24/18 A2997 RMK A01 T02350178  RH  070%=      5-min Rain = 0
KTAS 151410Z 24017KT 24/18 A2997 RMK A01 T02350177  RH  070%=      5-min Rain = 0
KTAS 151411Z 24017KT 23/18 A2997 RMK A01 T02340177  RH  070%=      5-min Rain = 0
KTAS 151412Z 24015KT 23/18 A2997 RMK A01 T02340177  RH  070%=      5-min Rain = 0
KTAS 151413Z 24014KT 24/18 A2997 RMK A01 T02360178  RH  070%=      5-min Rain = 0
KTAS 151414Z 24015KT 24/18 A2997 RMK A01 T02370177  RH  069%=      5-min Rain = 0
KTAS 151415Z 24016KT 24/18 A2997 RMK A01 T02370176  RH  069%=      5-min Rain = 0
KTAS 151416Z 24017KT 24/18 A2997 RMK A01 T02370176  RH  069%=      5-min Rain = 0
KTAS 151417Z 24015KT 24/18 A2997 RMK A01 T02380176  RH  068%=      5-min Rain = 0
KTAS 151418Z 24015G20KT 24/18 A2997 RMK A01 T02400176  RH  067%=      5-min Rain = 0
KTAS 151419Z 24017KT 24/17 A2997 RMK A01 T02410174  RH  066%=      5-min Rain = 0
KTAS 151420Z 24017KT 24/17 A2997 RMK A01 T02390174  RH  067%=      5-min Rain = 0
KTAS 151421Z 23015KT 24/17 A2997 RMK A01 T02400174  RH  067%=      5-min Rain = 0
KTAS 151422Z 23016KT 24/17 A2997 RMK A01 T02400173  RH  066%=      5-min Rain = 0
KTAS 151423Z 23015KT 24/17 A2997 RMK A01 T02410173  RH  066%=      5-min Rain = 0
KTAS 151424Z 24016KT 24/17 A2997 RMK A01 T02430173  RH  065%=      5-min Rain = 0
KTAS 151425Z 23016KT 24/17 A2997 RMK A01 T02420173  RH  065%=      5-min Rain = 0
KTAS 151426Z 23016KT 24/17 A2997 RMK A01 T02420171  RH  065%=      5-min Rain = 0
KTAS 151427Z 23015KT 24/17 A2997 RMK A01 T02410172  RH  065%=      5-min Rain = 0
KTAS 151428Z 23018KT 24/17 A2997 RMK A01 T02420172  RH  065%=      5-min Rain = 0
KTAS 151429Z 23017KT 24/17 A2997 RMK A01 T02410173  RH  066%=      5-min Rain = 0
KTAS 151430Z 24015KT 24/18 A2997 RMK A01 T02430175  RH  066%=      5-min Rain = 0
KTAS 151431Z 24015KT 25/17 A2997 RMK A01 T02460173  RH  064%=      5-min Rain = 0
KTAS 151432Z 23015KT 25/17 A2997 RMK A01 T02460173  RH  064%=      5-min Rain = 0
KTAS 151433Z 23017KT 25/17 A2997 RMK A01 T02450171  RH  063%=      5-min Rain = 0
KTAS 151434Z 23015KT 24/17 A2997 RMK A01 T02440172  RH  064%=      5-min Rain = 0
KTAS 151435Z 23016KT 24/17 A2997 RMK A01 T02440173  RH  064%=      5-min Rain = 0
KTAS 151436Z 23016KT 25/17 A2997 RMK A01 T02450174  RH  065%=      5-min Rain = 0
KTAS 151437Z 23016KT 24/18 A2997 RMK A01 T02440175  RH  065%=      5-min Rain = 0
KTAS 151438Z 23013KT 25/18 A2997 RMK A01 T02460176  RH  065%=      5-min Rain = 0
KTAS 151439Z 24014KT 25/18 A2997 RMK A01 T02480176  RH  064%=      5-min Rain = 0
KTAS 151440Z 23013KT 25/18 A2997 RMK A01 T02500176  RH  064%=      5-min Rain = 0
KTAS 151441Z 23012KT 25/18 A2997 RMK A01 T02490175  RH  064%=      5-min Rain = 0
KTAS 151442Z 24012KT 25/18 A2997 RMK A01 T02510177  RH  064%=      5-min Rain = 0
KTAS 151443Z 22013KT 25/18 A2997 RMK A01 T02530176  RH  062%=      5-min Rain = 0
KTAS 151444Z 22013KT 25/18 A2997 RMK A01 T02520175  RH  062%=      5-min Rain = 0
KTAS 151445Z 23013KT 25/18 A2997 RMK A01 T02540175  RH  062%=      5-min Rain = 0
KTAS 151446Z 24012KT 25/17 A2997 RMK A01 T02540174  RH  061%=      5-min Rain = 0
KTAS 151447Z 23014KT 26/17 A2997 RMK A01 T02560174  RH  060%=      5-min Rain = 0
KTAS 151448Z 24015KT 26/17 A2997 RMK A01 T02560173  RH  060%=      5-min Rain = 0
KTAS 151449Z 25015KT 26/17 A2997 RMK A01 T02550172  RH  060%=      5-min Rain = 0
KTAS 151450Z 24015G20KT 26/17 A2997 RMK A01 T02550169  RH  059%=      5-min Rain = 0
KTAS 151451Z 23013KT 26/17 A2997 RMK A01 T02570172  RH  059%=      5-min Rain = 0
KTAS 151452Z 23012KT 26/17 A2997 RMK A01 T02580173  RH  059%=      5-min Rain = 0
KTAS 151453Z 23013KT 26/17 A2997 RMK A01 T02580174  RH  060%=      5-min Rain = 0
KTAS 151454Z 23013KT 26/17 A2997 RMK A01 T02590173  RH  059%=      5-min Rain = 0
KTAS 151455Z 23013KT 26/17 A2997 RMK A01 T02610172  RH  058%=      5-min Rain = 0
KTAS 151456Z 23014KT 26/17 A2997 RMK A01 T02590169  RH  057%=      5-min Rain = 0
KTAS 151457Z 23013KT 26/17 A2997 RMK A01 T02590170  RH  058%=      5-min Rain = 0
KTAS 151458Z 24014KT 26/17 A2997 RMK A01 T02610171  RH  058%=      5-min Rain = 0
KTAS 151459Z 24014KT 26/17 A2997 RMK A01 T02590171  RH  058%=      5-min Rain = 0
KTAS 151500Z 23012KT 26/17 A2998 RMK A01 T02590170  RH  058%=      5-min Rain = 0
KTAS 151501Z 23017KT 26/17 A2997 RMK A01 T02600167  RH  057%=      5-min Rain = 0
KTAS 151502Z 23013KT 26/17 A2997 RMK A01 T02570166  RH  057%=      5-min Rain = 0
KTAS 151503Z 23014KT 26/17 A2998 RMK A01 T02550167  RH  058%=      5-min Rain = 0
KTAS 151504Z 24016KT 26/16 A2997 RMK A01 T02550164  RH  057%=      5-min Rain = 0
KTAS 151505Z 23014KT 26/17 A2997 RMK A01 T02560166  RH  058%=      5-min Rain = 0
KTAS 151506Z 23013KT 26/17 A2997 RMK A01 T02580168  RH  058%=      5-min Rain = 0
KTAS 151507Z 23012KT 26/17 A2997 RMK A01 T02600169  RH  057%=      5-min Rain = 0
KTAS 151508Z 23011KT 26/17 A2998 RMK A01 T02630170  RH  057%=      5-min Rain = 0
KTAS 151509Z 24012KT 27/17 A2997 RMK A01 T02680170  RH  055%=      5-min Rain = 0
KTAS 151510Z 23013KT 27/17 A2997 RMK A01 T02670170  RH  055%=      5-min Rain = 0
KTAS 151511Z 23012KT 27/17 A2997 RMK A01 T02670168  RH  055%=      5-min Rain = 0
KTAS 151512Z 24012KT 27/17 A2997 RMK A01 T02670166  RH  054%=      5-min Rain = 0
KTAS 151513Z 23011KT 27/17 A2997 RMK A01 T02700166  RH  053%=      5-min Rain = 0
KTAS 151514Z 23013KT 27/17 A2997 RMK A01 T02710166  RH  053%=      5-min Rain = 0
KTAS 151515Z 23011KT 27/16 A2997 RMK A01 T02690163  RH  052%=      5-min Rain = 0
KTAS 151516Z 23010KT 27/17 A2997 RMK A01 T02690165  RH  053%=      5-min Rain = 0
KTAS 151517Z 23012KT 27/17 A2997 RMK A01 T02740168  RH  052%=      5-min Rain = 0
KTAS 151518Z 23009KT 28/17 A2997 RMK A01 T02760168  RH  052%=      5-min Rain = 0
KTAS 151519Z 23013KT 28/17 A2997 RMK A01 T02760167  RH  052%=      5-min Rain = 0
KTAS 151520Z 23012KT 27/17 A2997 RMK A01 T02710167  RH  053%=      5-min Rain = 0
KTAS 151521Z 23013KT 27/16 A2997 RMK A01 T02710163  RH  052%=      5-min Rain = 0
KTAS 151522Z 24012KT 27/16 A2998 RMK A01 T02710164  RH  052%=      5-min Rain = 0
KTAS 151523Z 23013KT 27/17 A2998 RMK A01 T02720165  RH  052%=      5-min Rain = 0
KTAS 151524Z 24014KT 27/17 A2998 RMK A01 T02720165  RH  052%=      5-min Rain = 0
KTAS 151525Z 24011KT 27/17 A2998 RMK A01 T02710166  RH  053%=      5-min Rain = 0
KTAS 151526Z 24011KT 28/16 A2998 RMK A01 T02750164  RH  051%=      5-min Rain = 0
KTAS 151527Z 24010KT 28/16 A2998 RMK A01 T02770164  RH  050%=      5-min Rain = 0
KTAS 151528Z 23011KT 28/17 A2998 RMK A01 T02750165  RH  051%=      5-min Rain = 0
KTAS 151529Z 23013KT 28/16 A2998 RMK A01 T02760163  RH  050%=      5-min Rain = 0
KTAS 151530Z 23012KT 28/16 A2998 RMK A01 T02760160  RH  049%=      5-min Rain = 0
KTAS 151531Z 23011KT 28/16 A2998 RMK A01 T02760159  RH  049%=      5-min Rain = 0
KTAS 151532Z 22012KT 28/16 A2998 RMK A01 T02770164  RH  050%=      5-min Rain = 0
KTAS 151533Z 23011KT 28/17 A2998 RMK A01 T02790165  RH  050%=      5-min Rain = 0
KTAS 151534Z 22011KT 28/16 A2998 RMK A01 T02790164  RH  049%=      5-min Rain = 0
KTAS 151535Z 23013KT 28/16 A2998 RMK A01 T02810161  RH  048%=      5-min Rain = 0
KTAS 151536Z 23012KT 28/16 A2998 RMK A01 T02790161  RH  049%=      5-min Rain = 0
KTAS 151537Z 23010KT 28/16 A2998 RMK A01 T02780163  RH  049%=      5-min Rain = 0
KTAS 151538Z 22010KT 28/16 A2998 RMK A01 T02810164  RH  049%=      5-min Rain = 0
KTAS 151539Z 22011G16KT 28/16 A2998 RMK A01 T02830163  RH  048%=      5-min Rain = 0
KTAS 151540Z 23015KT 28/16 A2998 RMK A01 T02830156  RH  046%=      5-min Rain = 0
KTAS 151541Z 24013KT 28/16 A2998 RMK A01 T02810156  RH  047%=      5-min Rain = 0
KTAS 151542Z 24011KT 28/16 A2998 RMK A01 T02800157  RH  047%=      5-min Rain = 0
KTAS 151543Z 23012KT 28/16 A2998 RMK A01 T02830160  RH  047%=      5-min Rain = 0
KTAS 151544Z 24010KT 28/16 A2998 RMK A01 T02840159  RH  047%=      5-min Rain = 0
KTAS 151545Z 24008KT 28/16 A2999 RMK A01 T02820160  RH  047%=      5-min Rain = 0
KTAS 151546Z 25008KT 29/16 A2999 RMK A01 T02850161  RH  047%=      5-min Rain = 0
KTAS 151547Z 26010KT 29/16 A30 RMK A01 T02850158  RH  046%=      5-min Rain = 0
KTAS 151548Z 27009KT 29/15 A30 RMK A01 T02850151  RH  044%=      5-min Rain = 0
KTAS 151549Z 28010KT 29/15 A30 RMK A01 T02860154  RH  045%=      5-min Rain = 0
KTAS 151550Z 28010KT 29/15 A30 RMK A01 T02860153  RH  044%=      5-min Rain = 0
KTAS 151551Z 27009KT 29/16 A30 RMK A01 T02880156  RH  045%=      5-min Rain = 0
KTAS 151552Z 25008KT 29/16 A30 RMK A01 T02900156  RH  044%=      5-min Rain = 0
KTAS 151553Z 25009KT 29/16 A2999 RMK A01 T02890158  RH  045%=      5-min Rain = 0
KTAS 151554Z 25009KT 29/16 A2999 RMK A01 T02900157  RH  044%=      5-min Rain = 0
KTAS 151555Z 26009KT 29/15 A30 RMK A01 T02910151  RH  043%=      5-min Rain = 0
KTAS 151556Z 27007KT 29/15 A30 RMK A01 T02890149  RH  042%=      5-min Rain = 0
KTAS 151557Z 30010KT 29/15 A30 RMK A01 T02910150  RH  042%=      5-min Rain = 0
KTAS 151558Z 31012KT 30/15 A3001 RMK A01 T02960147  RH  040%=      5-min Rain = 0
KTAS 151559Z 32011KT 30/15 A3001 RMK A01 T02950146  RH  040%=      5-min Rain = 0
KTAS 151600Z 32011KT 30/15 A3001 RMK A01 T02960149  RH  041%=      5-min Rain = 0
KTAS 151601Z 33011KT 30/15 A3001 RMK A01 T03000150  RH  040%=      5-min Rain = 0
KTAS 151602Z 34012KT 30/15 A3001 RMK A01 T02980147  RH  040%=      5-min Rain = 0
KTAS 151603Z 33013KT 30/15 A3001 RMK A01 T02960149  RH  041%=      5-min Rain = 0
KTAS 151604Z 34011KT 30/15 A3001 RMK A01 T02970151  RH  041%=      5-min Rain = 0
KTAS 151605Z 34009KT 30/15 A3001 RMK A01 T02990152  RH  041%=      5-min Rain = 0
KTAS 151606Z 33008KT 30/15 A3001 RMK A01 T03010154  RH  041%=      5-min Rain = 0
KTAS 151607Z 34006KT 30/15 A3001 RMK A01 T03020151  RH  040%=      5-min Rain = 0
KTAS 151608Z 33007KT 30/15 A3001 RMK A01 T02990150  RH  040%=      5-min Rain = 0
KTAS 151609Z 35007KT 30/15 A3002 RMK A01 T02960149  RH  041%=      5-min Rain = 0
KTAS 151610Z 00009KT 29/15 A3002 RMK A01 T02930148  RH  041%=      5-min Rain = 0
KTAS 151611Z 35013G18KT 29/15 A3002 RMK A01 T02900148  RH  042%=      5-min Rain = 0
KTAS 151612Z 00012KT 28/15 A3002 RMK A01 T02840148  RH  043%=      5-min Rain = 0
KTAS 151613Z 01012KT 28/15 A3002 RMK A01 T02820149  RH  044%=      5-min Rain = 0
KTAS 151614Z 00012KT 28/15 A3002 RMK A01 T02810148  RH  044%=      5-min Rain = 0
KTAS 151615Z 35009KT 28/15 A3002 RMK A01 T02800148  RH  045%=      5-min Rain = 0
KTAS 151616Z 01008KT 28/15 A3002 RMK A01 T02800150  RH  045%=      5-min Rain = 0
KTAS 151617Z 05007KT 28/16 A3001 RMK A01 T02800156  RH  047%=      5-min Rain = 0
KTAS 151618Z 04006KT 28/16 A3001 RMK A01 T02810160  RH  048%=      5-min Rain = 0
KTAS 151619Z 04007KT 28/16 A3001 RMK A01 T02830159  RH  047%=      5-min Rain = 0
KTAS 151620Z 04007KT 28/16 A3001 RMK A01 T02830158  RH  047%=      5-min Rain = 0
KTAS 151621Z 04008KT 29/16 A3001 RMK A01 T02850161  RH  047%=      5-min Rain = 0
KTAS 151622Z 03008KT 29/16 A3001 RMK A01 T02900160  RH  045%=      5-min Rain = 0
KTAS 151623Z 05006KT 29/16 A3001 RMK A01 T02900159  RH  045%=      5-min Rain = 0
KTAS 151624Z 02005KT 29/16 A3001 RMK A01 T02890160  RH  045%=      5-min Rain = 0
KTAS 151625Z 36009G14KT 29/16 A3001 RMK A01 T02930160  RH  045%=      5-min Rain = 0
KTAS 151626Z 35012KT 30/16 A3001 RMK A01 T02950159  RH  044%=      5-min Rain = 0
KTAS 151627Z 01010KT 30/16 A3001 RMK A01 T02960158  RH  043%=      5-min Rain = 0
KTAS 151628Z 02009G15KT 30/16 A3001 RMK A01 T02970159  RH  043%=      5-min Rain = 0
KTAS 151629Z 05011KT 30/16 A3001 RMK A01 T02970155  RH  042%=      5-min Rain = 0
KTAS 151630Z 03012KT 29/16 A3001 RMK A01 T02910156  RH  044%=      5-min Rain = 0
KTAS 151631Z 03008G13KT 29/16 A3001 RMK A01 T02940156  RH  043%=      5-min Rain = 0
KTAS 151632Z 03012KT 30/16 A3001 RMK A01 T02960158  RH  043%=      5-min Rain = 0
KTAS 151633Z 04016KT 29/16 A3001 RMK A01 T02930160  RH  044%=      5-min Rain = 0
KTAS 151634Z 03015KT 29/16 A3001 RMK A01 T02920161  RH  045%=      5-min Rain = 0
KTAS 151635Z 03014KT 29/16 A3001 RMK A01 T02890160  RH  046%=      5-min Rain = 0
KTAS 151636Z 03014KT 29/16 A3001 RMK A01 T02890161  RH  046%=      5-min Rain = 0
KTAS 151637Z 03012KT 29/16 A3001 RMK A01 T02940163  RH  045%=      5-min Rain = 0
KTAS 151638Z 02014KT 29/16 A3001 RMK A01 T02930160  RH  045%=      5-min Rain = 0
KTAS 151639Z 04012KT 29/16 A3001 RMK A01 T02880160  RH  046%=      5-min Rain = 0
KTAS 151640Z 02009KT 29/16 A3001 RMK A01 T02850158  RH  046%=      5-min Rain = 0
KTAS 151641Z 05009KT 28/16 A3001 RMK A01 T02840160  RH  047%=      5-min Rain = 0
KTAS 151642Z 05009KT 29/16 A3001 RMK A01 T02860159  RH  046%=      5-min Rain = 0
KTAS 151643Z 04007KT 29/16 A3001 RMK A01 T02860159  RH  046%=      5-min Rain = 0
KTAS 151644Z 03006KT 29/16 A3001 RMK A01 T02890158  RH  045%=      5-min Rain = 0
KTAS 151645Z 01007KT 29/16 A3001 RMK A01 T02910158  RH  044%=      5-min Rain = 0
KTAS 151646Z 01009KT 29/16 A3001 RMK A01 T02940156  RH  043%=      5-min Rain = 0
KTAS 151647Z 01009KT 29/16 A3001 RMK A01 T02940156  RH  043%=      5-min Rain = 0
KTAS 151648Z 00012KT 29/16 A3001 RMK A01 T02910157  RH  044%=      5-min Rain = 0
KTAS 151649Z 36008KT 29/16 A3001 RMK A01 T02900155  RH  044%=      5-min Rain = 0
KTAS 151650Z 03008KT 29/16 A3001 RMK A01 T02910157  RH  044%=      5-min Rain = 0
KTAS 151651Z 02006KT 29/16 A3001 RMK A01 T02930155  RH  043%=      5-min Rain = 0
KTAS 151652Z 03011G16KT 29/16 A3001 RMK A01 T02940158  RH  044%=      5-min Rain = 0
KTAS 151653Z 04010KT 29/16 A3001 RMK A01 T02910155  RH  044%=      5-min Rain = 0
KTAS 151654Z 04007KT 29/16 A3001 RMK A01 T02870156  RH  045%=      5-min Rain = 0
KTAS 151655Z 02007KT 29/16 A3001 RMK A01 T02880158  RH  045%=      5-min Rain = 0
KTAS 151656Z 04009G14KT 29/16 A3001 RMK A01 T02940159  RH  044%=      5-min Rain = 0
KTAS 151657Z 05010KT 30/16 A3001 RMK A01 T02970155  RH  042%=      5-min Rain = 0
KTAS 151658Z 01007KT 30/16 A3001 RMK A01 T02960155  RH  043%=      5-min Rain = 0
KTAS 151659Z 02006KT 30/16 A3001 RMK A01 T02960155  RH  043%=      5-min Rain = 0
KTAS 151700Z 03012KT 30/16 A3001 RMK A01 T03000158  RH  042%=      5-min Rain = 0
KTAS 151701Z 04014KT 30/16 A3001 RMK A01 T02980156  RH  042%=      5-min Rain = 0
KTAS 151702Z 02011KT 29/16 A3001 RMK A01 T02930156  RH  044%=      5-min Rain = 0
KTAS 151703Z 03011KT 30/16 A3001 RMK A01 T02950158  RH  043%=      5-min Rain = 0
KTAS 151704Z 01009KT 30/16 A3001 RMK A01 T02970157  RH  043%=      5-min Rain = 0
KTAS 151705Z 01009KT 30/16 A3001 RMK A01 T02980157  RH  043%=      5-min Rain = 0
KTAS 151706Z 02009KT 30/16 A3001 RMK A01 T03020157  RH  042%=      5-min Rain = 0
KTAS 151707Z 02006KT 30/16 A3001 RMK A01 T03040156  RH  041%=      5-min Rain = 0
KTAS 151708Z 00007KT 30/16 A3001 RMK A01 T03030155  RH  041%=      5-min Rain = 0
KTAS 151709Z 35007KT 30/15 A3001 RMK A01 T03010153  RH  041%=      5-min Rain = 0
KTAS 151710Z 02006KT 30/15 A3001 RMK A01 T02980152  RH  041%=      5-min Rain = 0
KTAS 151711Z 02004KT 30/15 A3001 RMK A01 T02980149  RH  040%=      5-min Rain = 0
KTAS 151712Z 36005KT 30/15 A3001 RMK A01 T03000151  RH  040%=      5-min Rain = 0
KTAS 151713Z 01006KT 30/15 A3001 RMK A01 T03020149  RH  040%=      5-min Rain = 0
KTAS 151714Z 36005KT 30/15 A3001 RMK A01 T03020149  RH  039%=      5-min Rain = 0
KTAS 151715Z 01007KT 30/15 A3001 RMK A01 T02990149  RH  040%=      5-min Rain = 0
KTAS 151716Z 01005KT 30/15 A3001 RMK A01 T02980147  RH  040%=      5-min Rain = 0
KTAS 151717Z 34009KT 30/15 A3001 RMK A01 T03010149  RH  040%=      5-min Rain = 0
KTAS 151718Z 33006KT 30/15 A3001 RMK A01 T02980145  RH  039%=      5-min Rain = 0
KTAS 151719Z 35004KT 30/15 A3001 RMK A01 T02950145  RH  040%=      5-min Rain = 0
KTAS 151720Z 03007KT 30/15 A3001 RMK A01 T02960148  RH  041%=      5-min Rain = 0
KTAS 151721Z 03006KT 30/15 A3001 RMK A01 T02990150  RH  040%=      5-min Rain = 0
KTAS 151722Z 02007KT 30/15 A3001 RMK A01 T03000152  RH  041%=      5-min Rain = 0
KTAS 151723Z 04006KT 31/16 A3001 RMK A01 T03060155  RH  040%=      5-min Rain = 0
KTAS 151724Z 05008KT 31/15 A3001 RMK A01 T03090151  RH  039%=      5-min Rain = 0
KTAS 151725Z 04008KT 30/15 A3001 RMK A01 T03030149  RH  039%=      5-min Rain = 0
KTAS 151726Z 05009KT 30/15 A3001 RMK A01 T02990148  RH  040%=      5-min Rain = 0
KTAS 151727Z 06009KT 30/15 A3001 RMK A01 T02980149  RH  040%=      5-min Rain = 0
KTAS 151728Z 08009KT 30/15 A3001 RMK A01 T02980149  RH  040%=      5-min Rain = 0
KTAS 151729Z 09008KT 30/15 A3001 RMK A01 T02990149  RH  040%=      5-min Rain = 0
KTAS 151730Z 06007KT 30/15 A3001 RMK A01 T03020151  RH  040%=      5-min Rain = 0
KTAS 151731Z 03006KT 30/15 A3001 RMK A01 T03040148  RH  039%=      5-min Rain = 0
KTAS 151732Z 04003KT 30/15 A3001 RMK A01 T03000147  RH  039%=      5-min Rain = 0
KTAS 151733Z 03005KT 30/15 A3001 RMK A01 T03000147  RH  039%=      5-min Rain = 0
KTAS 151734Z 03004KT 30/15 A3001 RMK A01 T03000148  RH  040%=      5-min Rain = 0
KTAS 151735Z 10004KT 30/15 A3001 RMK A01 T03010147  RH  039%=      5-min Rain = 0
KTAS 151736Z 13006KT 30/15 A30 RMK A01 T03020146  RH  038%=      5-min Rain = 0
KTAS 151737Z 13007KT 31/15 A30 RMK A01 T03060146  RH  038%=      5-min Rain = 0
KTAS 151738Z 12006KT 31/14 A30 RMK A01 T03060144  RH  037%=      5-min Rain = 0
KTAS 151739Z 12005KT 31/14 A30 RMK A01 T03080143  RH  037%=      5-min Rain = 0
KTAS 151740Z 12008KT 31/15 A30 RMK A01 T03120145  RH  036%=      5-min Rain = 0
KTAS 151741Z 13005KT 31/15 A30 RMK A01 T03130145  RH  036%=      5-min Rain = 0
KTAS 151742Z 14005KT 31/14 A30 RMK A01 T03130144  RH  036%=      5-min Rain = 0
KTAS 151743Z 10006KT 31/14 A30 RMK A01 T03110140  RH  035%=      5-min Rain = 0
KTAS 151744Z 07008KT 31/14 A30 RMK A01 T03070140  RH  036%=      5-min Rain = 0
KTAS 151745Z 04002KT 30/14 A30 RMK A01 T03000137  RH  037%=      5-min Rain = 0
KTAS 151746Z 14002KT 30/14 A30 RMK A01 T02970136  RH  037%=      5-min Rain = 0
KTAS 151747Z 10003KT 30/14 A30 RMK A01 T03000139  RH  037%=      5-min Rain = 0
KTAS 151748Z 06006KT 31/14 A30 RMK A01 T03050139  RH  036%=      5-min Rain = 0
KTAS 151749Z 03003KT 30/14 A30 RMK A01 T03040137  RH  036%=      5-min Rain = 0
KTAS 151750Z 29002KT 30/14 A30 RMK A01 T03020137  RH  036%=      5-min Rain = 0
KTAS 151751Z 09003KT 30/14 A30 RMK A01 T03030138  RH  036%=      5-min Rain = 0
KTAS 151752Z 08003KT 30/14 A30 RMK A01 T03040136  RH  036%=      5-min Rain = 0
KTAS 151753Z 04009KT 30/14 A30 RMK A01 T03040143  RH  037%=      5-min Rain = 0
KTAS 151754Z 05010KT 31/15 A30 RMK A01 T03080145  RH  037%=      5-min Rain = 0
KTAS 151755Z 03010KT 31/15 A30 RMK A01 T03110147  RH  037%=      5-min Rain = 0
KTAS 151756Z 05011KT 32/15 A30 RMK A01 T03150147  RH  036%=      5-min Rain = 0
KTAS 151757Z 06009KT 31/14 A30 RMK A01 T03100144  RH  036%=      5-min Rain = 0
KTAS 151758Z 05005KT 31/14 A30 RMK A01 T03060144  RH  037%=      5-min Rain = 0
KTAS 151759Z 05007KT 31/15 A30 RMK A01 T03100145  RH  037%=      5-min Rain = 0
KTAS 151800Z 05007KT 31/14 A30 RMK A01 T03120143  RH  036%=      5-min Rain = 0
KTAS 151801Z 05006KT 31/14 A30 RMK A01 T03090139  RH  036%=      5-min Rain = 0
KTAS 151802Z 04004KT 31/14 A30 RMK A01 T03060138  RH  036%=      5-min Rain = 0
KTAS 151803Z 08005KT 31/14 A30 RMK A01 T03060138  RH  036%=      5-min Rain = 0
KTAS 151804Z 10005KT 31/14 A30 RMK A01 T03060138  RH  036%=      5-min Rain = 0
KTAS 151805Z 11004KT 30/14 A30 RMK A01 T03030139  RH  037%=      5-min Rain = 0
KTAS 151806Z 11003KT 30/14 A30 RMK A01 T03020138  RH  037%=      5-min Rain = 0
KTAS 151807Z 13007KT 30/14 A2999 RMK A01 T03040138  RH  036%=      5-min Rain = 0
KTAS 151808Z 12006KT 31/13 A2999 RMK A01 T03050133  RH  035%=      5-min Rain = 0
KTAS 151809Z 13003KT 30/13 A30 RMK A01 T03040133  RH  035%=      5-min Rain = 0
KTAS 151810Z 12002KT 31/13 A30 RMK A01 T03050134  RH  035%=      5-min Rain = 0
KTAS 151811Z 08001KT 30/13 A2999 RMK A01 T03040132  RH  035%=      5-min Rain = 0
KTAS 151812Z 06002KT 30/13 A2999 RMK A01 T03040130  RH  034%=      5-min Rain = 0
KTAS 151813Z 10003KT 30/13 A2999 RMK A01 T03040131  RH  035%=      5-min Rain = 0
KTAS 151814Z 14004KT 31/13 A2999 RMK A01 T03080132  RH  034%=      5-min Rain = 0
KTAS 151815Z 14003KT 31/13 A2999 RMK A01 T03090130  RH  034%=      5-min Rain = 0
KTAS 151816Z 16001KT 31/13 A2999 RMK A01 T03090132  RH  034%=      5-min Rain = 0
KTAS 151817Z 20002KT 31/13 A2999 RMK A01 T03110134  RH  034%=      5-min Rain = 0
KTAS 151818Z 05002KT 32/13 A2999 RMK A01 T03160132  RH  033%=      5-min Rain = 0
KTAS 151819Z 04002KT 31/13 A2999 RMK A01 T03140129  RH  032%=      5-min Rain = 0
KTAS 151820Z 04003KT 31/13 A2999 RMK A01 T03100130  RH  033%=      5-min Rain = 0
KTAS 151821Z 05003KT 31/13 A2999 RMK A01 T03090129  RH  033%=      5-min Rain = 0
KTAS 151822Z 03002KT 31/13 A2999 RMK A01 T03070129  RH  034%=      5-min Rain = 0
KTAS 151823Z 05005KT 31/13 A2999 RMK A01 T03080130  RH  034%=      5-min Rain = 0
KTAS 151824Z 05008KT 31/12 A2999 RMK A01 T03130124  RH  032%=      5-min Rain = 0
KTAS 151825Z 05008KT 31/12 A2999 RMK A01 T03140119  RH  030%=      5-min Rain = 0
KTAS 151826Z 05005KT 31/12 A2999 RMK A01 T03130119  RH  031%=      5-min Rain = 0
KTAS 151827Z 05005KT 31/12 A2999 RMK A01 T03140122  RH  031%=      5-min Rain = 0
KTAS 151828Z 03006KT 31/13 A2999 RMK A01 T03130127  RH  032%=      5-min Rain = 0
KTAS 151829Z 02005KT 31/13 A2999 RMK A01 T03130131  RH  033%=      5-min Rain = 0
KTAS 151830Z 02005G10KT 32/13 A2999 RMK A01 T03160134  RH  033%=      5-min Rain = 0
KTAS 151831Z 01009KT 32/13 A2999 RMK A01 T03190133  RH  032%=      5-min Rain = 0
KTAS 151832Z 01006KT 32/13 A2999 RMK A01 T03230132  RH  031%=      5-min Rain = 0
KTAS 151833Z 01005KT 32/13 A2999 RMK A01 T03230130  RH  031%=      5-min Rain = 0
KTAS 151834Z 05007KT 32/13 A2999 RMK A01 T03220132  RH  032%=      5-min Rain = 0
KTAS 151835Z 10005KT 32/14 A2999 RMK A01 T03220135  RH  032%=      5-min Rain = 0
KTAS 151836Z 10009KT 33/14 A2999 RMK A01 T03250139  RH  032%=      5-min Rain = 0
KTAS 151837Z 09008KT 33/14 A2998 RMK A01 T03290139  RH  032%=      5-min Rain = 0
KTAS 151838Z 08008KT 33/14 A2998 RMK A01 T03290138  RH  031%=      5-min Rain = 0
KTAS 151839Z 10006KT 33/14 A2998 RMK A01 T03250138  RH  032%=      5-min Rain = 0
KTAS 151840Z 08009KT 33/14 A2998 RMK A01 T03250137  RH  032%=      5-min Rain = 0
KTAS 151841Z 10006KT 32/14 A2999 RMK A01 T03230137  RH  032%=      5-min Rain = 0
KTAS 151842Z 10004KT 32/14 A2999 RMK A01 T03230136  RH  032%=      5-min Rain = 0
KTAS 151843Z 10005KT 32/14 A2998 RMK A01 T03230138  RH  033%=      5-min Rain = 0
KTAS 151844Z 07009KT 33/14 A2998 RMK A01 T03280137  RH  031%=      5-min Rain = 0
KTAS 151845Z 08007KT 33/14 A2999 RMK A01 T03270135  RH  031%=      5-min Rain = 0
KTAS 151846Z 09005KT 32/13 A2999 RMK A01 T03190133  RH  032%=      5-min Rain = 0
KTAS 151847Z 05005KT 32/14 A2999 RMK A01 T03210136  RH  033%=      5-min Rain = 0
KTAS 151848Z 04005KT 32/13 A2999 RMK A01 T03200134  RH  032%=      5-min Rain = 0
KTAS 151849Z 04006KT 32/13 A2999 RMK A01 T03190134  RH  032%=      5-min Rain = 0
KTAS 151850Z 05004KT 32/13 A2999 RMK A01 T03190134  RH  032%=      5-min Rain = 0
KTAS 151851Z 01004KT 32/13 A2999 RMK A01 T03190133  RH  032%=      5-min Rain = 0
KTAS 151852Z 35003KT 32/13 A2999 RMK A01 T03220132  RH  032%=      5-min Rain = 0
KTAS 151853Z 33005KT 32/13 A2998 RMK A01 T03240129  RH  031%=      5-min Rain = 0
KTAS 151854Z 35003KT 32/13 A2998 RMK A01 T03200128  RH  031%=      5-min Rain = 0
KTAS 151855Z 02004KT 32/13 A2998 RMK A01 T03180129  RH  032%=      5-min Rain = 0
KTAS 151856Z 05002KT 32/13 A2998 RMK A01 T03160129  RH  032%=      5-min Rain = 0
KTAS 151857Z 09002KT 32/13 A2998 RMK A01 T03150129  RH  032%=      5-min Rain = 0
KTAS 151858Z 13003KT 32/13 A2998 RMK A01 T03150129  RH  032%=      5-min Rain = 0
KTAS 151859Z 12003KT 32/13 A2998 RMK A01 T03160129  RH  032%=      5-min Rain = 0
KTAS 151900Z 13003KT 32/13 A2998 RMK A01 T03170128  RH  031%=      5-min Rain = 0
KTAS 151901Z 11008KT 32/13 A2998 RMK A01 T03200130  RH  032%=      5-min Rain = 0
KTAS 151902Z 11008KT 32/13 A2998 RMK A01 T03240130  RH  031%=      5-min Rain = 0
KTAS 151903Z 10008KT 33/13 A2998 RMK A01 T03270131  RH  030%=      5-min Rain = 0
KTAS 151904Z 09008KT 33/13 A2998 RMK A01 T03290130  RH  030%=      5-min Rain = 0
KTAS 151905Z 08007KT 33/13 A2998 RMK A01 T03290131  RH  030%=      5-min Rain = 0
KTAS 151906Z 10005KT 33/13 A2998 RMK A01 T03270128  RH  030%=      5-min Rain = 0
KTAS 151907Z 13006KT 32/13 A2998 RMK A01 T03240129  RH  031%=      5-min Rain = 0
KTAS 151908Z 12005KT 33/13 A2998 RMK A01 T03280129  RH  030%=      5-min Rain = 0
KTAS 151909Z 16004KT 33/13 A2998 RMK A01 T03280126  RH  029%=      5-min Rain = 0
KTAS 151910Z 16001KT 32/13 A2998 RMK A01 T03230126  RH  030%=      5-min Rain = 0
KTAS 151911Z 16002KT 32/13 A2998 RMK A01 T03230126  RH  030%=      5-min Rain = 0
KTAS 151912Z 15002KT 33/12 A2998 RMK A01 T03250124  RH  029%=      5-min Rain = 0
KTAS 151913Z 10006KT 33/13 A2998 RMK A01 T03260129  RH  030%=      5-min Rain = 0
KTAS 151914Z 07011KT 33/13 A2998 RMK A01 T03290132  RH  030%=      5-min Rain = 0
KTAS 151915Z 05010KT 33/13 A2998 RMK A01 T03300131  RH  030%=      5-min Rain = 0
KTAS 151916Z 05011KT 33/13 A2998 RMK A01 T03280129  RH  030%=      5-min Rain = 0
KTAS 151917Z 05011KT 32/13 A2998 RMK A01 T03230128  RH  031%=      5-min Rain = 0
KTAS 151918Z 03008KT 32/13 A2998 RMK A01 T03200128  RH  031%=      5-min Rain = 0
KTAS 151919Z 05005G10KT 32/13 A2998 RMK A01 T03200127  RH  031%=      5-min Rain = 0
KTAS 151920Z 03008KT 32/13 A2998 RMK A01 T03190127  RH  031%=      5-min Rain = 0
KTAS 151921Z 02008KT 33/13 A2998 RMK A01 T03250130  RH  031%=      5-min Rain = 0
KTAS 151922Z 01007KT 33/13 A2998 RMK A01 T03310127  RH  029%=      5-min Rain = 0
KTAS 151923Z 03004KT 33/13 A2998 RMK A01 T03270125  RH  029%=      5-min Rain = 0
KTAS 151924Z 04008KT 33/13 A2997 RMK A01 T03270128  RH  030%=      5-min Rain = 0
KTAS 151925Z 01005KT 33/12 A2997 RMK A01 T03280124  RH  029%=      5-min Rain = 0
KTAS 151926Z 03005KT 33/13 A2997 RMK A01 T03250125  RH  030%=      5-min Rain = 0
KTAS 151927Z 06004KT 33/13 A2997 RMK A01 T03260125  RH  029%=      5-min Rain = 0
KTAS 151928Z 04006KT 32/13 A2997 RMK A01 T03240125  RH  030%=      5-min Rain = 0
KTAS 151929Z 05005KT 32/13 A2997 RMK A01 T03240125  RH  030%=      5-min Rain = 0
KTAS 151930Z 06007KT 33/13 A2997 RMK A01 T03260126  RH  030%=      5-min Rain = 0
KTAS 151931Z 10006KT 33/13 A2997 RMK A01 T03300125  RH  029%=      5-min Rain = 0
KTAS 151932Z 07006KT 33/13 A2997 RMK A01 T03320126  RH  029%=      5-min Rain = 0
KTAS 151933Z 07007KT 34/13 A2997 RMK A01 T03360127  RH  028%=      5-min Rain = 0
KTAS 151934Z 07006KT 34/12 A2997 RMK A01 T03360124  RH  028%=      5-min Rain = 0
KTAS 151935Z 04005KT 34/12 A2997 RMK A01 T03360122  RH  027%=      5-min Rain = 0
KTAS 151936Z 08005KT 33/12 A2997 RMK A01 T03340121  RH  027%=      5-min Rain = 0
KTAS 151937Z 10006KT 33/12 A2997 RMK A01 T03310120  RH  028%=      5-min Rain = 0
KTAS 151938Z 10007KT 33/12 A2997 RMK A01 T03320119  RH  027%=      5-min Rain = 0
KTAS 151939Z 11004KT 33/12 A2997 RMK A01 T03290117  RH  028%=      5-min Rain = 0
KTAS 151940Z 09005KT 33/12 A2997 RMK A01 T03280116  RH  027%=      5-min Rain = 0
KTAS 151941Z 07005KT 33/12 A2996 RMK A01 T03290115  RH  027%=      5-min Rain = 0
KTAS 151942Z 07002KT 33/11 A2996 RMK A01 T03260113  RH  027%=      5-min Rain = 0
KTAS 151943Z 09003KT 33/11 A2996 RMK A01 T03260114  RH  027%=      5-min Rain = 0
KTAS 151944Z 12004KT 33/12 A2996 RMK A01 T03260115  RH  028%=      5-min Rain = 0
KTAS 151945Z 16002KT 33/12 A2996 RMK A01 T03260118  RH  028%=      5-min Rain = 0
KTAS 151946Z 21004KT 33/12 A2996 RMK A01 T03280116  RH  027%=      5-min Rain = 0
KTAS 151947Z 22004KT 33/12 A2996 RMK A01 T03270116  RH  028%=      5-min Rain = 0
KTAS 151948Z 17004KT 33/12 A2996 RMK A01 T03290116  RH  027%=      5-min Rain = 0
KTAS 151949Z 14004KT 33/11 A2996 RMK A01 T03280114  RH  027%=      5-min Rain = 0
KTAS 151950Z 10004KT 33/12 A2996 RMK A01 T03290115  RH  027%=      5-min Rain = 0
KTAS 151951Z 07006KT 34/12 A2996 RMK A01 T03350118  RH  027%=      5-min Rain = 0
KTAS 151952Z 04003KT 34/11 A2996 RMK A01 T03370110  RH  025%=      5-min Rain = 0
KTAS 151953Z 06004KT 34/11 A2996 RMK A01 T03370113  RH  025%=      5-min Rain = 0
KTAS 151954Z 06003KT 34/11 A2996 RMK A01 T03380114  RH  026%=      5-min Rain = 0
KTAS 151955Z 03004KT 34/11 A2996 RMK A01 T03360113  RH  026%=      5-min Rain = 0
KTAS 151956Z 03005KT 34/12 A2996 RMK A01 T03360118  RH  027%=      5-min Rain = 0
KTAS 151957Z 03006KT 34/12 A2995 RMK A01 T03380121  RH  027%=      5-min Rain = 0
KTAS 151958Z 10007KT 34/12 A2995 RMK A01 T03400120  RH  026%=      5-min Rain = 0
KTAS 151959Z 12008KT 34/12 A2996 RMK A01 T03390117  RH  026%=      5-min Rain = 0
KTAS 152000Z 13007KT 34/12 A2995 RMK A01 T03400116  RH  026%=      5-min Rain = 0
KTAS 152001Z 11012KT 34/13 A2995 RMK A01 T03410128  RH  028%=      5-min Rain = 0
KTAS 152002Z 12008KT 34/13 A2995 RMK A01 T03370130  RH  029%=      5-min Rain = 0
KTAS 152003Z 09008KT 34/13 A2995 RMK A01 T03380130  RH  029%=      5-min Rain = 0
KTAS 152004Z 07011KT 34/13 A2995 RMK A01 T03410131  RH  028%=      5-min Rain = 0
KTAS 152005Z 06008KT 33/13 A2995 RMK A01 T03320128  RH  029%=      5-min Rain = 0
KTAS 152006Z 07007KT 32/13 A2995 RMK A01 T03240128  RH  030%=      5-min Rain = 0
KTAS 152007Z 05009KT 32/13 A2995 RMK A01 T03210128  RH  031%=      5-min Rain = 0
KTAS 152008Z 08010G15KT 32/13 A2995 RMK A01 T03230129  RH  031%=      5-min Rain = 0
KTAS 152009Z 06009KT 33/13 A2995 RMK A01 T03290127  RH  029%=      5-min Rain = 0
KTAS 152010Z 04007G12KT 33/13 A2995 RMK A01 T03270126  RH  030%=      5-min Rain = 0
KTAS 152011Z 03011KT 33/13 A2995 RMK A01 T03270127  RH  030%=      5-min Rain = 0
KTAS 152012Z 04009G14KT 33/12 A2995 RMK A01 T03260124  RH  029%=      5-min Rain = 0
KTAS 152013Z 04009KT 32/13 A2995 RMK A01 T03230125  RH  030%=      5-min Rain = 0
KTAS 152014Z 04011KT 32/12 A2995 RMK A01 T03240124  RH  030%=      5-min Rain = 0
KTAS 152015Z 05010KT 32/12 A2995 RMK A01 T03210123  RH  030%=      5-min Rain = 0
KTAS 152016Z 06009KT 32/12 A2995 RMK A01 T03200123  RH  030%=      5-min Rain = 0
KTAS 152017Z 04006KT 32/12 A2995 RMK A01 T03180124  RH  031%=      5-min Rain = 0
KTAS 152018Z 03007KT 32/13 A2995 RMK A01 T03190126  RH  031%=      5-min Rain = 0
KTAS 152019Z 06007KT 32/13 A2995 RMK A01 T03200125  RH  030%=      5-min Rain = 0
KTAS 152020Z 06007KT 32/13 A2995 RMK A01 T03210129  RH  031%=      5-min Rain = 0
KTAS 152021Z 07012KT 33/13 A2995 RMK A01 T03250133  RH  031%=      5-min Rain = 0
KTAS 152022Z 06011KT 33/13 A2995 RMK A01 T03290133  RH  031%=      5-min Rain = 0
KTAS 152023Z 06011KT 33/13 A2995 RMK A01 T03320131  RH  030%=      5-min Rain = 0
KTAS 152024Z 06010KT 33/13 A2995 RMK A01 T03290130  RH  030%=      5-min Rain = 0
KTAS 152025Z 05006KT 33/13 A2995 RMK A01 T03290129  RH  030%=      5-min Rain = 0
KTAS 152026Z 06010KT 33/13 A2994 RMK A01 T03280129  RH  030%=      5-min Rain = 0
KTAS 152027Z 07013KT 33/13 A2994 RMK A01 T03280125  RH  029%=      5-min Rain = 0
KTAS 152028Z 07012KT 33/12 A2994 RMK A01 T03280122  RH  028%=      5-min Rain = 0
KTAS 152029Z 07008KT 33/12 A2994 RMK A01 T03280122  RH  028%=      5-min Rain = 0
KTAS 152030Z 05011KT 33/12 A2994 RMK A01 T03260123  RH  029%=      5-min Rain = 0
KTAS 152031Z 06009KT 32/12 A2994 RMK A01 T03210118  RH  029%=      5-min Rain = 0
KTAS 152032Z 09010KT 32/12 A2994 RMK A01 T03200121  RH  030%=      5-min Rain = 0
KTAS 152033Z 11010KT 32/12 A2994 RMK A01 T03200122  RH  030%=      5-min Rain = 0
KTAS 152034Z 12010KT 32/12 A2994 RMK A01 T03170120  RH  030%=      5-min Rain = 0
KTAS 152035Z 11004KT 32/12 A2994 RMK A01 T03170121  RH  030%=      5-min Rain = 0
KTAS 152036Z 08005KT 32/13 A2994 RMK A01 T03210125  RH  030%=      5-min Rain = 0
KTAS 152037Z 05006KT 33/13 A2993 RMK A01 T03280126  RH  029%=      5-min Rain = 0
KTAS 152038Z 04010KT 33/13 A2993 RMK A01 T03320131  RH  029%=      5-min Rain = 0
KTAS 152039Z 04011KT 34/13 A2993 RMK A01 T03370127  RH  028%=      5-min Rain = 0
KTAS 152040Z 05010KT 34/13 A2993 RMK A01 T03360128  RH  028%=      5-min Rain = 0
KTAS 152041Z 04009KT 34/13 A2993 RMK A01 T03380129  RH  028%=      5-min Rain = 0
KTAS 152042Z 06009KT 34/13 A2993 RMK A01 T03370126  RH  028%=      5-min Rain = 0
KTAS 152043Z 05008KT 33/13 A2993 RMK A01 T03330125  RH  028%=      5-min Rain = 0
KTAS 152044Z 05009G14KT 33/13 A2993 RMK A01 T03310125  RH  029%=      5-min Rain = 0
KTAS 152045Z 04012KT 34/13 A2993 RMK A01 T03350126  RH  028%=      5-min Rain = 0
KTAS 152046Z 05010KT 34/13 A2993 RMK A01 T03380125  RH  028%=      5-min Rain = 0
KTAS 152047Z 05007KT 34/12 A2993 RMK A01 T03380122  RH  027%=      5-min Rain = 0
KTAS 152048Z 02006KT 33/13 A2992 RMK A01 T03340125  RH  028%=      5-min Rain = 0
KTAS 152049Z 04008KT 33/13 A2992 RMK A01 T03330127  RH  029%=      5-min Rain = 0
KTAS 152050Z 06010KT 33/13 A2992 RMK A01 T03340130  RH  029%=      5-min Rain = 0
KTAS 152051Z 04010KT 34/13 A2992 RMK A01 T03360128  RH  028%=      5-min Rain = 0
KTAS 152052Z 05013G19KT 33/13 A2992 RMK A01 T03330126  RH  029%=      5-min Rain = 0
KTAS 152053Z 09014KT 33/12 A2992 RMK A01 T03270124  RH  029%=      5-min Rain = 0
KTAS 152054Z 08012KT 32/12 A2992 RMK A01 T03220123  RH  030%=      5-min Rain = 0
KTAS 152055Z 05013KT 32/12 A2992 RMK A01 T03200124  RH  030%=      5-min Rain = 0
KTAS 152056Z 05014KT 32/12 A2992 RMK A01 T03190124  RH  030%=      5-min Rain = 0
KTAS 152057Z 05012KT 32/12 A2992 RMK A01 T03160124  RH  031%=      5-min Rain = 0
KTAS 152058Z 06011KT 32/12 A2992 RMK A01 T03150124  RH  031%=      5-min Rain = 0
KTAS 152059Z 05008KT 31/12 A2992 RMK A01 T03140124  RH  031%=      5-min Rain = 0
KTAS 152100Z 04009KT 31/12 A2992 RMK A01 T03130123  RH  031%=      5-min Rain = 0
KTAS 152101Z 02009KT 31/12 A2992 RMK A01 T03140123  RH  031%=      5-min Rain = 0
KTAS 152102Z 03008KT 32/12 A2992 RMK A01 T03160123  RH  031%=      5-min Rain = 0
KTAS 152103Z 04011KT 32/12 A2992 RMK A01 T03180122  RH  030%=      5-min Rain = 0
KTAS 152104Z 04010KT 32/12 A2992 RMK A01 T03170120  RH  030%=      5-min Rain = 0
KTAS 152105Z 05010KT 32/12 A2992 RMK A01 T03160123  RH  031%=      5-min Rain = 0
KTAS 152106Z 05010KT 32/13 A2992 RMK A01 T03200126  RH  031%=      5-min Rain = 0
KTAS 152107Z 07011KT 33/13 A2991 RMK A01 T03260129  RH  030%=      5-min Rain = 0
KTAS 152108Z 06010KT 33/13 A2991 RMK A01 T03260129  RH  030%=      5-min Rain = 0
KTAS 152109Z 05013KT 33/13 A2991 RMK A01 T03250127  RH  030%=      5-min Rain = 0
KTAS 152110Z 05011KT 33/13 A2991 RMK A01 T03250126  RH  030%=      5-min Rain = 0
KTAS 152111Z 06012KT 33/13 A2991 RMK A01 T03290129  RH  030%=      5-min Rain = 0
KTAS 152112Z 07012KT 33/13 A2991 RMK A01 T03290126  RH  029%=      5-min Rain = 0
KTAS 152113Z 06010KT 32/13 A2991 RMK A01 T03220126  RH  030%=      5-min Rain = 0
KTAS 152114Z 06011KT 32/13 A2991 RMK A01 T03230127  RH  030%=      5-min Rain = 0
KTAS 152115Z 04010KT 33/13 A2991 RMK A01 T03280127  RH  030%=      5-min Rain = 0
KTAS 152116Z 05011KT 33/13 A2991 RMK A01 T03300125  RH  029%=      5-min Rain = 0
KTAS 152117Z 06013KT 33/13 A2991 RMK A01 T03290125  RH  029%=      5-min Rain = 0
KTAS 152118Z 05011G16KT 33/12 A2991 RMK A01 T03270124  RH  029%=      5-min Rain = 0
KTAS 152119Z 06015KT 33/12 A2991 RMK A01 T03250120  RH  029%=      5-min Rain = 0
KTAS 152120Z 07011KT 32/12 A2991 RMK A01 T03200119  RH  029%=      5-min Rain = 0
KTAS 152121Z 06010KT 32/12 A299 RMK A01 T03180123  RH  030%=      5-min Rain = 0
KTAS 152122Z 06011KT 32/13 A299 RMK A01 T03220125  RH  030%=      5-min Rain = 0
KTAS 152123Z 07012KT 33/13 A299 RMK A01 T03280127  RH  030%=      5-min Rain = 0
KTAS 152124Z 07012KT 33/13 A299 RMK A01 T03300127  RH  029%=      5-min Rain = 0
KTAS 152125Z 08011G16KT 33/13 A299 RMK A01 T03290125  RH  029%=      5-min Rain = 0
KTAS 152126Z 08010G15KT 33/13 A299 RMK A01 T03280127  RH  029%=      5-min Rain = 0
KTAS 152127Z 08013KT 33/12 A299 RMK A01 T03250124  RH  029%=      5-min Rain = 0
KTAS 152128Z 08017KT 32/12 A2991 RMK A01 T03200123  RH  030%=      5-min Rain = 0
KTAS 152129Z 09017KT 32/13 A2991 RMK A01 T03170125  RH  031%=      5-min Rain = 0
KTAS 152130Z 12018G25KT 31/11 A2991 RMK A01 T03130106  RH  028%=      5-min Rain = 0
KTAS 152131Z 13018G23KT 30/08 A2991 RMK A01 T03000080  RH  025%=      5-min Rain = 0
KTAS 152132Z 13022KT 29/08 A2991 RMK A01 T02870076  RH  027%=      5-min Rain = 0
KTAS 152133Z 12017G23KT 28/08 A2992 RMK A01 T02790077  RH  028%=      5-min Rain = 0
KTAS 152134Z 12026KT 28/08 A2992 RMK A01 T02750083  RH  030%=      5-min Rain = 0
KTAS 152135Z 12022G27KT 26/09 A2992 RMK A01 T02610090  RH  034%=      5-min Rain = 0
KTAS 152136Z 12028G36KT 25/09 A2992 RMK A01 T02540090  RH  035%=      5-min Rain = 0
KTAS 152137Z 11026G36KT 25/10 A2993 RMK A01 T02460096  RH  039%=      5-min Rain = 0
KTAS 152138Z 11025G30KT 23/11 A2993 RMK A01 T02340108  RH  045%=      5-min Rain = 0
KTAS 152139Z 11022G27KT 23/11 A2993 RMK A01 T02290111  RH  047%=      5-min Rain = 0
KTAS 152140Z 12017KT 23/11 A2993 RMK A01 T02300110  RH  047%=      5-min Rain = 0
KTAS 152141Z 13019KT 23/11 A2993 RMK A01 T02320105  RH  044%=      5-min Rain = 0
KTAS 152142Z 14018KT 24/10 A2993 RMK A01 T02370097  RH  041%=      5-min Rain = 0
KTAS 152143Z 15021G29KT 25/09 A2994 RMK A01 T02460085  RH  036%=      5-min Rain = 0
KTAS 152144Z 15021G26KT 25/10 A2994 RMK A01 T02500100  RH  039%=      5-min Rain = 0
KTAS 152145Z 13018G26KT 24/11 A2995 RMK A01 T02370107  RH  044%=      5-min Rain = 0
KTAS 152146Z 14009KT 23/11 A2994 RMK A01 T02320110  RH  046%=      5-min Rain = 0
KTAS 152147Z 14016KT 23/11 A2993 RMK A01 T02310110  RH  047%=      5-min Rain = 0
KTAS 152148Z 14016KT 23/11 A2993 RMK A01 T02310106  RH  045%=      5-min Rain = 0
KTAS 152149Z 14015KT 23/11 A2993 RMK A01 T02320105  RH  045%=      5-min Rain = 0
KTAS 152150Z 13016KT 23/11 A2993 RMK A01 T02310105  RH  045%=      5-min Rain = 0
KTAS 152151Z 12016KT 23/11 A2993 RMK A01 T02290108  RH  046%=      5-min Rain = 0
KTAS 152152Z 12018KT 23/11 A2993 RMK A01 T02290112  RH  047%=      5-min Rain = 0
KTAS 152153Z 12015KT 23/12 A2993 RMK A01 T02280116  RH  049%=      5-min Rain = 0
KTAS 152154Z 12015G20KT 23/12 A2994 RMK A01 T02280117  RH  050%=      5-min Rain = 0
KTAS 152155Z 11015KT 23/12 A2994 RMK A01 T02270119  RH  051%=      5-min Rain = 0
KTAS 152156Z 11017KT 23/12 A2994 RMK A01 T02270120  RH  051%=      5-min Rain = 0
KTAS 152157Z 10016KT 23/12 A2994 RMK A01 T02270119  RH  050%=      5-min Rain = 0
KTAS 152158Z 11015KT 23/12 A2994 RMK A01 T02250119  RH  051%=      5-min Rain = 0
KTAS 152159Z 12018KT 23/12 A2994 RMK A01 T02250117  RH  050%=      5-min Rain = 0
KTAS 152200Z 12017KT 22/12 A2994 RMK A01 T02230115  RH  050%=      5-min Rain = 0
KTAS 152201Z 12020KT 22/11 A2994 RMK A01 T02220113  RH  050%=      5-min Rain = 0
KTAS 152202Z 12019KT 22/11 A2994 RMK A01 T02190113  RH  051%=      5-min Rain = 0
KTAS 152203Z 12016KT 22/11 A2994 RMK A01 T02200113  RH  051%=      5-min Rain = 0
KTAS 152204Z 12014KT 22/11 A2993 RMK A01 T02210113  RH  050%=      5-min Rain = 0
KTAS 152205Z 12014KT 22/11 A2993 RMK A01 T02220113  RH  050%=      5-min Rain = 0
KTAS 152206Z 12013KT 23/11 A2993 RMK A01 T02250113  RH  049%=      5-min Rain = 0
KTAS 152207Z 12013KT 23/11 A2993 RMK A01 T02300114  RH  048%=      5-min Rain = 0
KTAS 152208Z 12013KT 23/11 A2993 RMK A01 T02330113  RH  047%=      5-min Rain = 0
KTAS 152209Z 13013KT 24/11 A2993 RMK A01 T02360113  RH  046%=      5-min Rain = 0
KTAS 152210Z 13014KT 24/11 A2993 RMK A01 T02380114  RH  046%=      5-min Rain = 0
KTAS 152211Z 13012KT 24/11 A2993 RMK A01 T02420114  RH  044%=      5-min Rain = 0
KTAS 152212Z 12009KT 25/11 A2993 RMK A01 T02490109  RH  042%=      5-min Rain = 0
KTAS 152213Z 13010KT 25/11 A2992 RMK A01 T02510113  RH  042%=      5-min Rain = 0
KTAS 152214Z 12013KT 25/11 A2992 RMK A01 T02520111  RH  041%=      5-min Rain = 0
KTAS 152215Z 11012KT 26/11 A2992 RMK A01 T02560110  RH  040%=      5-min Rain = 0
KTAS 152216Z 11014G20KT 26/11 A2992 RMK A01 T02590109  RH  039%=      5-min Rain = 0
KTAS 152217Z 12016KT 26/10 A2991 RMK A01 T02640103  RH  037%=      5-min Rain = 0
KTAS 152218Z 11018G24KT 27/10 A2991 RMK A01 T02680102  RH  035%=      5-min Rain = 0
KTAS 152219Z 11015KT 27/10 A2991 RMK A01 T02720103  RH  035%=      5-min Rain = 0
KTAS 152220Z 11019KT 27/11 A2991 RMK A01 T02710107  RH  036%=      5-min Rain = 0
KTAS 152221Z 11017KT 27/11 A2991 RMK A01 T02650106  RH  037%=      5-min Rain = 0
KTAS 152222Z 11015KT 26/11 A2991 RMK A01 T02610108  RH  038%=      5-min Rain = 0
KTAS 152223Z 11012KT 26/11 A2992 RMK A01 T02610109  RH  038%=      5-min Rain = 0
KTAS 152224Z 10012KT 26/11 A2992 RMK A01 T02620112  RH  039%=      5-min Rain = 0
KTAS 152225Z 09012KT 26/12 A2992 RMK A01 T02610116  RH  040%=      5-min Rain = 0
KTAS 152226Z 11011KT 26/12 A2992 RMK A01 T02590118  RH  041%=      5-min Rain = 0
KTAS 152227Z 11008KT 26/12 A2992 RMK A01 T02590118  RH  042%=      5-min Rain = 0
KTAS 152228Z 10008KT 26/12 A2992 RMK A01 T02580121  RH  043%=      5-min Rain = 0
KTAS 152229Z 10006KT 26/12 A2992 RMK A01 T02570122  RH  043%=      5-min Rain = 0
KTAS 152230Z 11010KT 26/12 A2993 RMK A01 T02590118  RH  041%=      5-min Rain = 0
KTAS 152231Z 11009KT 26/11 A2993 RMK A01 T02630112  RH  039%=      5-min Rain = 0
KTAS 152232Z 10010KT 27/11 A2993 RMK A01 T02670114  RH  039%=      5-min Rain = 0
KTAS 152233Z 10010KT 27/12 A2993 RMK A01 T02710116  RH  038%=      5-min Rain = 0
KTAS 152234Z 09009KT 27/12 A2993 RMK A01 T02720117  RH  038%=      5-min Rain = 0
KTAS 152235Z 09012KT 27/11 A2993 RMK A01 T02740114  RH  037%=      5-min Rain = 0
KTAS 152236Z 07012KT 27/12 A2993 RMK A01 T02670115  RH  039%=      5-min Rain = 0
KTAS 152237Z 07014KT 26/12 A2993 RMK A01 T02640119  RH  040%=      5-min Rain = 0
KTAS 152238Z 08012KT 26/12 A2993 RMK A01 T02590122  RH  042%=      5-min Rain = 0
KTAS 152239Z 07012KT 26/12 A2992 RMK A01 T02590124  RH  043%=      5-min Rain = 0
KTAS 152240Z 07013KT 26/12 A2992 RMK A01 T02580121  RH  042%=      5-min Rain = 0
KTAS 152241Z 07014KT 26/12 A2992 RMK A01 T02570122  RH  043%=      5-min Rain = 0
KTAS 152242Z 08014KT 26/12 A2992 RMK A01 T02580123  RH  043%=      5-min Rain = 0
KTAS 152243Z 07013G18KT 26/12 A2991 RMK A01 T02610124  RH  043%=      5-min Rain = 0
KTAS 152244Z 06012KT 26/13 A2991 RMK A01 T02610126  RH  043%=      5-min Rain = 0
KTAS 152245Z 06012G17KT 26/13 A2991 RMK A01 T02580132  RH  045%=      5-min Rain = 0
KTAS 152246Z 07013KT 26/13 A2991 RMK A01 T02570134  RH  046%=      5-min Rain = 0
KTAS 152247Z 07014G19KT 26/14 A2991 RMK A01 T02600137  RH  046%=      5-min Rain = 0
KTAS 152248Z 07014KT 26/14 A2991 RMK A01 T02620140  RH  047%=      5-min Rain = 0
KTAS 152249Z 07013KT 26/14 A2991 RMK A01 T02620143  RH  048%=      5-min Rain = 0
KTAS 152250Z 07017KT 26/14 A2991 RMK A01 T02600141  RH  048%=      5-min Rain = 0
KTAS 152251Z 08013KT 26/14 A2991 RMK A01 T02580141  RH  048%=      5-min Rain = 0
KTAS 152252Z 07011KT 26/14 A2991 RMK A01 T02620140  RH  047%=      5-min Rain = 0
KTAS 152253Z 07014KT 27/14 A2991 RMK A01 T02660137  RH  045%=      5-min Rain = 0
KTAS 152254Z 07012KT 27/14 A2991 RMK A01 T02660137  RH  045%=      5-min Rain = 0
KTAS 152255Z 07010KT 27/14 A2991 RMK A01 T02700139  RH  045%=      5-min Rain = 0
KTAS 152256Z 08011KT 27/14 A2991 RMK A01 T02700140  RH  045%=      5-min Rain = 0
KTAS 152257Z 08013KT 27/13 A2991 RMK A01 T02680130  RH  042%=      5-min Rain = 0
KTAS 152258Z 08012KT 27/13 A2992 RMK A01 T02650129  RH  043%=      5-min Rain = 0
KTAS 152259Z 08014KT 27/12 A2992 RMK A01 T02650123  RH  041%=      5-min Rain = 0
KTAS 152300Z 08015KT 27/12 A2992 RMK A01 T02660118  RH  040%=      5-min Rain = 0
KTAS 152301Z 08012KT 27/12 A2992 RMK A01 T02650122  RH  041%=      5-min Rain = 0
KTAS 152302Z 08013KT 27/12 A2992 RMK A01 T02660124  RH  041%=      5-min Rain = 0
KTAS 152303Z 07014KT 27/13 A2992 RMK A01 T02650128  RH  042%=      5-min Rain = 0
KTAS 152304Z 07013KT 26/13 A2991 RMK A01 T02640130  RH  044%=      5-min Rain = 0
KTAS 152305Z 08012KT 26/13 A2991 RMK A01 T02630130  RH  044%=      5-min Rain = 0
KTAS 152306Z 07012KT 27/13 A2991 RMK A01 T02650129  RH  043%=      5-min Rain = 0
KTAS 152307Z 07013KT 27/14 A2991 RMK A01 T02670135  RH  044%=      5-min Rain = 0
KTAS 152308Z 07012KT 27/14 A2991 RMK A01 T02690143  RH  046%=      5-min Rain = 0
KTAS 152309Z 07013KT 27/15 A2991 RMK A01 T02730149  RH  047%=      5-min Rain = 0
KTAS 152310Z 07012KT 27/15 A2991 RMK A01 T02700153  RH  049%=      5-min Rain = 0
KTAS 152311Z 07012KT 27/15 A2991 RMK A01 T02690152  RH  049%=      5-min Rain = 0
KTAS 152312Z 07011KT 27/15 A2991 RMK A01 T02680152  RH  049%=      5-min Rain = 0
KTAS 152313Z 07011KT 27/15 A299 RMK A01 T02690153  RH  049%=      5-min Rain = 0
KTAS 152314Z 08011KT 27/15 A299 RMK A01 T02690154  RH  050%=      5-min Rain = 0
KTAS 152315Z 09013KT 27/15 A299 RMK A01 T02690153  RH  049%=      5-min Rain = 0
KTAS 152316Z 09012KT 27/15 A299 RMK A01 T02690153  RH  049%=      5-min Rain = 0
KTAS 152317Z 09012KT 27/15 A299 RMK A01 T02710153  RH  048%=      5-min Rain = 0
KTAS 152318Z 08012KT 27/16 A299 RMK A01 T02690155  RH  049%=      5-min Rain = 0
KTAS 152319Z 07011KT 27/16 A299 RMK A01 T02690155  RH  050%=      5-min Rain = 0
KTAS 152320Z 08010KT 27/16 A299 RMK A01 T02680159  RH  051%=      5-min Rain = 0
KTAS 152321Z 08013KT 27/16 A2989 RMK A01 T02720158  RH  050%=      5-min Rain = 0
KTAS 152322Z 07014KT 27/16 A2989 RMK A01 T02720155  RH  049%=      5-min Rain = 0
KTAS 152323Z 07014KT 27/15 A2989 RMK A01 T02690153  RH  049%=      5-min Rain = 0
KTAS 152324Z 08015KT 27/15 A2989 RMK A01 T02690153  RH  049%=      5-min Rain = 0
KTAS 152325Z 07014KT 27/15 A2989 RMK A01 T02680154  RH  050%=      5-min Rain = 0
KTAS 152326Z 08014KT 27/16 A2989 RMK A01 T02660155  RH  050%=      5-min Rain = 0
KTAS 152327Z 08014KT 26/16 A2989 RMK A01 T02640155  RH  051%=      5-min Rain = 0
KTAS 152328Z 08013KT 27/16 A2989 RMK A01 T02650155  RH  051%=      5-min Rain = 0
KTAS 152329Z 07013KT 26/15 A2989 RMK A01 T02640153  RH  050%=      5-min Rain = 0
KTAS 152330Z 07012KT 27/15 A2989 RMK A01 T02650152  RH  050%=      5-min Rain = 0
KTAS 152331Z 08011KT 27/15 A2989 RMK A01 T02680152  RH  049%=      5-min Rain = 0
KTAS 152332Z 08015KT 27/15 A2989 RMK A01 T02700153  RH  048%=      5-min Rain = 0
KTAS 152333Z 08014KT 27/15 A2989 RMK A01 T02670154  RH  050%=      5-min Rain = 0
KTAS 152334Z 07015KT 27/16 A2989 RMK A01 T02670157  RH  051%=      5-min Rain = 0
KTAS 152335Z 07013KT 27/16 A2989 RMK A01 T02660159  RH  052%=      5-min Rain = 0
KTAS 152336Z 07014KT 27/16 A2989 RMK A01 T02660155  RH  051%=      5-min Rain = 0
KTAS 152337Z 06014KT 27/15 A2989 RMK A01 T02650151  RH  050%=      5-min Rain = 0
KTAS 152338Z 05016KT 26/14 A2989 RMK A01 T02630142  RH  047%=      5-min Rain = 0
KTAS 152339Z 06013KT 26/14 A2989 RMK A01 T02620143  RH  048%=      5-min Rain = 0
KTAS 152340Z 07012KT 26/15 A2989 RMK A01 T02640145  RH  048%=      5-min Rain = 0
KTAS 152341Z 07011KT 27/14 A2989 RMK A01 T02660143  RH  047%=      5-min Rain = 0
KTAS 152342Z 07015KT 27/14 A2989 RMK A01 T02670139  RH  045%=      5-min Rain = 0
KTAS 152343Z 07015KT 27/14 A2989 RMK A01 T02650136  RH  045%=      5-min Rain = 0
KTAS 152344Z 07016KT 26/14 A2989 RMK A01 T02630136  RH  046%=      5-min Rain = 0
KTAS 152345Z 06016KT 26/13 A2989 RMK A01 T02610134  RH  045%=      5-min Rain = 0
KTAS 152346Z 07012KT 26/13 A2989 RMK A01 T02610134  RH  046%=      5-min Rain = 0
KTAS 152347Z 06014KT 26/14 A2989 RMK A01 T02630137  RH  046%=      5-min Rain = 0
KTAS 152348Z 06015KT 26/13 A2989 RMK A01 T02610134  RH  045%=      5-min Rain = 0
KTAS 152349Z 07013KT 26/13 A2989 RMK A01 T02610134  RH  046%=      5-min Rain = 0
KTAS 152350Z 06016KT 26/14 A299 RMK A01 T02620135  RH  045%=      5-min Rain = 0
KTAS 152351Z 07013KT 26/14 A299 RMK A01 T02620137  RH  046%=      5-min Rain = 0
KTAS 152352Z 07013KT 26/14 A299 RMK A01 T02640139  RH  046%=      5-min Rain = 0
KTAS 152353Z 07012KT 26/14 A299 RMK A01 T02640141  RH  047%=      5-min Rain = 0
KTAS 152354Z 06016KT 26/14 A299 RMK A01 T02640138  RH  046%=      5-min Rain = 0
KTAS 152355Z 07014G19KT 26/14 A299 RMK A01 T02630137  RH  046%=      5-min Rain = 0
KTAS 152356Z 07018KT 26/14 A299 RMK A01 T02620137  RH  046%=      5-min Rain = 0
KTAS 152357Z 07017KT 26/14 A299 RMK A01 T02600140  RH  047%=      5-min Rain = 0
KTAS 152358Z 07016KT 26/14 A299 RMK A01 T02600141  RH  048%=      5-min Rain = 0
KTAS 152359Z 07016KT 26/14 A299 RMK A01 T02600142  RH  048%=      5-min Rain = 0
KTAS 160000Z 07013KT 26/14 A299 RMK A01 T02610143  RH  048%=      5-min Rain = 0
KTAS 160001Z 08013KT 26/14 A299 RMK A01 T02640142  RH  047%=      5-min Rain = 0
KTAS 160002Z 07013KT 27/14 A299 RMK A01 T02660142  RH  046%=      5-min Rain = 0
KTAS 160003Z 07016KT 27/14 A299 RMK A01 T02670137  RH  045%=      5-min Rain = 0
KTAS 160004Z 07015KT 27/13 A299 RMK A01 T02670134  RH  044%=      5-min Rain = 0
KTAS 160005Z 07016KT 27/13 A299 RMK A01 T02670130  RH  043%=      5-min Rain = 0
KTAS 160006Z 07015KT 27/13 A299 RMK A01 T02670133  RH  043%=      5-min Rain = 0
KTAS 160007Z 07011KT 27/14 A299 RMK A01 T02680135  RH  044%=      5-min Rain = 0
KTAS 160008Z 08012KT 27/13 A299 RMK A01 T02710134  RH  043%=      5-min Rain = 0
KTAS 160009Z 08013KT 27/13 A299 RMK A01 T02730131  RH  041%=      5-min Rain = 0
KTAS 160010Z 07013KT 28/13 A299 RMK A01 T02750131  RH  041%=      5-min Rain = 0
KTAS 160011Z 08017KT 28/13 A299 RMK A01 T02750126  RH  040%=      5-min Rain = 0
KTAS 160012Z 08016G21KT 28/13 A299 RMK A01 T02750127  RH  040%=      5-min Rain = 0
KTAS 160013Z 08017KT 27/13 A299 RMK A01 T02740125  RH  040%=      5-min Rain = 0
KTAS 160014Z 08015KT 27/13 A299 RMK A01 T02730125  RH  040%=      5-min Rain = 0
KTAS 160015Z 08014KT 27/13 A299 RMK A01 T02730128  RH  041%=      5-min Rain = 0
KTAS 160016Z 08017KT 27/13 A299 RMK A01 T02720129  RH  041%=      5-min Rain = 0
KTAS 160017Z 08016KT 27/13 A299 RMK A01 T02720128  RH  041%=      5-min Rain = 0
KTAS 160018Z 08013KT 27/13 A299 RMK A01 T02720131  RH  042%=      5-min Rain = 0
KTAS 160019Z 08016KT 27/13 A299 RMK A01 T02720132  RH  042%=      5-min Rain = 0
KTAS 160020Z 08014KT 27/13 A299 RMK A01 T02710133  RH  042%=      5-min Rain = 0
KTAS 160021Z 09014KT 27/13 A299 RMK A01 T02710133  RH  042%=      5-min Rain = 0
KTAS 160022Z 09014KT 27/13 A299 RMK A01 T02710133  RH  043%=      5-min Rain = 0
KTAS 160023Z 09011KT 27/13 A299 RMK A01 T02710133  RH  043%=      5-min Rain = 0
KTAS 160024Z 08015KT 27/13 A299 RMK A01 T02720130  RH  041%=      5-min Rain = 0
KTAS 160025Z 08015KT 27/13 A299 RMK A01 T02710128  RH  041%=      5-min Rain = 0
KTAS 160026Z 09013KT 27/13 A299 RMK A01 T02710130  RH  042%=      5-min Rain = 0
KTAS 160027Z 09012KT 27/13 A299 RMK A01 T02720128  RH  041%=      5-min Rain = 0
KTAS 160028Z 09014KT 27/13 A299 RMK A01 T02720128  RH  041%=      5-min Rain = 0
KTAS 160029Z 09014KT 27/13 A299 RMK A01 T02710127  RH  041%=      5-min Rain = 0
KTAS 160030Z 09013KT 27/13 A299 RMK A01 T02700127  RH  041%=      5-min Rain = 0
KTAS 160031Z 08012KT 27/13 A299 RMK A01 T02700130  RH  042%=      5-min Rain = 0
KTAS 160032Z 08010KT 27/13 A299 RMK A01 T02700130  RH  042%=      5-min Rain = 0
KTAS 160033Z 09011KT 27/13 A299 RMK A01 T02710125  RH  041%=      5-min Rain = 0
KTAS 160034Z 09014KT 27/12 A299 RMK A01 T02710116  RH  038%=      5-min Rain = 0
KTAS 160035Z 08013KT 27/11 A299 RMK A01 T02700112  RH  037%=      5-min Rain = 0
KTAS 160036Z 09010KT 27/11 A299 RMK A01 T02710114  RH  038%=      5-min Rain = 0
KTAS 160037Z 09011G17KT 27/11 A299 RMK A01 T02710109  RH  036%=      5-min Rain = 0
KTAS 160038Z 10009KT 27/11 A299 RMK A01 T02710110  RH  037%=      5-min Rain = 0
KTAS 160039Z 10013KT 27/11 A299 RMK A01 T02710109  RH  036%=      5-min Rain = 0
KTAS 160040Z 10013G18KT 27/11 A299 RMK A01 T02710109  RH  036%=      5-min Rain = 0
KTAS 160041Z 12014KT 27/12 A299 RMK A01 T02700118  RH  039%=      5-min Rain = 0
KTAS 160042Z 11016KT 27/13 A299 RMK A01 T02660134  RH  044%=      5-min Rain = 0
KTAS 160043Z 11016KT 26/14 A299 RMK A01 T02620136  RH  045%=      5-min Rain = 0
KTAS 160044Z 11013KT 26/13 A299 RMK A01 T02620134  RH  045%=      5-min Rain = 0
KTAS 160045Z 12012KT 26/13 A299 RMK A01 T02620132  RH  045%=      5-min Rain = 0
KTAS 160046Z 12015KT 26/13 A299 RMK A01 T02630127  RH  043%=      5-min Rain = 0
KTAS 160047Z 12015KT 26/12 A299 RMK A01 T02630124  RH  042%=      5-min Rain = 0
KTAS 160048Z 12013KT 26/12 A299 RMK A01 T02630122  RH  041%=      5-min Rain = 0
KTAS 160049Z 13012KT 26/12 A299 RMK A01 T02640121  RH  041%=      5-min Rain = 0
KTAS 160050Z 13016G21KT 26/12 A299 RMK A01 T02630121  RH  041%=      5-min Rain = 0
KTAS 160051Z 13015KT 26/12 A299 RMK A01 T02610122  RH  042%=      5-min Rain = 0
KTAS 160052Z 13015KT 26/12 A299 RMK A01 T02600119  RH  041%=      5-min Rain = 0
KTAS 160053Z 13016KT 26/12 A299 RMK A01 T02600117  RH  041%=      5-min Rain = 0
KTAS 160054Z 12015KT 26/11 A299 RMK A01 T02600113  RH  040%=      5-min Rain = 0
KTAS 160055Z 12015KT 26/11 A299 RMK A01 T02600113  RH  040%=      5-min Rain = 0
KTAS 160056Z 12010KT 26/11 A299 RMK A01 T02600114  RH  040%=      5-min Rain = 0
KTAS 160057Z 13010KT 26/12 A299 RMK A01 T02600115  RH  040%=      5-min Rain = 0
KTAS 160058Z 13013KT 26/11 A299 RMK A01 T02600113  RH  040%=      5-min Rain = 0
KTAS 160059Z 13012KT 26/11 A299 RMK A01 T02590113  RH  040%=      5-min Rain = 0
KTAS 160100Z 13013KT 26/11 A299 RMK A01 T02590113  RH  040%=      5-min Rain = 0
KTAS 160101Z 13013KT 26/11 A299 RMK A01 T02580113  RH  040%=      5-min Rain = 0
KTAS 160102Z 13012KT 26/11 A299 RMK A01 T02580113  RH  040%=      5-min Rain = 0
KTAS 160103Z 14012KT 26/11 A299 RMK A01 T02580114  RH  040%=      5-min Rain = 0
KTAS 160104Z 13011KT 26/11 A299 RMK A01 T02570114  RH  041%=      5-min Rain = 0
KTAS 160105Z 13012KT 26/11 A299 RMK A01 T02570114  RH  041%=      5-min Rain = 0
KTAS 160106Z 13013KT 26/12 A299 RMK A01 T02560115  RH  041%=      5-min Rain = 0
KTAS 160107Z 13012KT 26/11 A299 RMK A01 T02560113  RH  041%=      5-min Rain = 0
KTAS 160108Z 13011KT 26/11 A299 RMK A01 T02560114  RH  041%=      5-min Rain = 0
KTAS 160109Z 14012KT 26/12 A299 RMK A01 T02560115  RH  041%=      5-min Rain = 0
KTAS 160110Z 13012KT 26/11 A299 RMK A01 T02550114  RH  041%=      5-min Rain = 0
KTAS 160111Z 13011KT 26/11 A299 RMK A01 T02550114  RH  041%=      5-min Rain = 0
KTAS 160112Z 14012KT 26/12 A299 RMK A01 T02550115  RH  042%=      5-min Rain = 0
KTAS 160113Z 13011KT 26/12 A299 RMK A01 T02550115  RH  042%=      5-min Rain = 0
KTAS 160114Z 14009KT 26/12 A299 RMK A01 T02550117  RH  042%=      5-min Rain = 0
KTAS 160115Z 14011KT 25/12 A299 RMK A01 T02540118  RH  043%=      5-min Rain = 0
KTAS 160116Z 14011KT 25/12 A299 RMK A01 T02540117  RH  043%=      5-min Rain = 0
KTAS 160117Z 13010KT 25/12 A299 RMK A01 T02530117  RH  043%=      5-min Rain = 0
KTAS 160118Z 13009KT 25/12 A299 RMK A01 T02520118  RH  043%=      5-min Rain = 0
KTAS 160119Z 13009KT 25/12 A299 RMK A01 T02510118  RH  043%=      5-min Rain = 0
KTAS 160120Z 14011KT 25/12 A299 RMK A01 T02510118  RH  043%=      5-min Rain = 0
KTAS 160121Z 14009KT 25/12 A299 RMK A01 T02510118  RH  043%=      5-min Rain = 0
KTAS 160122Z 14008KT 25/12 A299 RMK A01 T02510119  RH  044%=      5-min Rain = 0
KTAS 160123Z 14009KT 25/12 A2991 RMK A01 T02500119  RH  044%=      5-min Rain = 0
KTAS 160124Z 14009KT 25/12 A2991 RMK A01 T02500120  RH  044%=      5-min Rain = 0
KTAS 160125Z 14009KT 25/12 A2991 RMK A01 T02490120  RH  044%=      5-min Rain = 0
KTAS 160126Z 14006KT 25/12 A2991 RMK A01 T02490120  RH  045%=      5-min Rain = 0
KTAS 160127Z 14008KT 25/12 A2991 RMK A01 T02480120  RH  045%=      5-min Rain = 0
KTAS 160128Z 14008KT 25/12 A2991 RMK A01 T02480119  RH  044%=      5-min Rain = 0
KTAS 160129Z 14007KT 25/12 A2991 RMK A01 T02480119  RH  044%=      5-min Rain = 0
KTAS 160130Z 14006KT 25/12 A2991 RMK A01 T02470119  RH  045%=      5-min Rain = 0
KTAS 160131Z 14005KT 25/12 A2991 RMK A01 T02470119  RH  045%=      5-min Rain = 0
KTAS 160132Z 14005KT 25/12 A2991 RMK A01 T02460119  RH  045%=      5-min Rain = 0
KTAS 160133Z 14007KT 24/12 A2991 RMK A01 T02440118  RH  045%=      5-min Rain = 0
KTAS 160134Z 14006KT 24/12 A2991 RMK A01 T02440118  RH  045%=      5-min Rain = 0
KTAS 160135Z 14006KT 24/12 A2991 RMK A01 T02440118  RH  045%=      5-min Rain = 0
KTAS 160136Z 14007KT 24/12 A2991 RMK A01 T02430118  RH  046%=      5-min Rain = 0
KTAS 160137Z 14007KT 24/12 A2991 RMK A01 T02420119  RH  046%=      5-min Rain = 0
KTAS 160138Z 13005KT 24/12 A2991 RMK A01 T02420119  RH  046%=      5-min Rain = 0
KTAS 160139Z 13005KT 24/12 A2991 RMK A01 T02410119  RH  046%=      5-min Rain = 0
KTAS 160140Z 13005KT 24/12 A2991 RMK A01 T02410119  RH  047%=      5-min Rain = 0
KTAS 160141Z 12005KT 24/12 A2991 RMK A01 T02400119  RH  047%=      5-min Rain = 0
KTAS 160142Z 11005KT 24/12 A2992 RMK A01 T02390119  RH  047%=      5-min Rain = 0
KTAS 160143Z 09005KT 24/12 A2992 RMK A01 T02380119  RH  047%=      5-min Rain = 0
KTAS 160144Z 09005KT 24/12 A2992 RMK A01 T02360118  RH  048%=      5-min Rain = 0
KTAS 160145Z 07005KT 23/12 A2992 RMK A01 T02340119  RH  048%=      5-min Rain = 0
KTAS 160146Z 07004KT 23/12 A2992 RMK A01 T02330122  RH  050%=      5-min Rain = 0
KTAS 160147Z 07004KT 23/12 A2992 RMK A01 T02320123  RH  050%=      5-min Rain = 0
KTAS 160148Z 07005KT 23/13 A2992 RMK A01 T02300126  RH  052%=      5-min Rain = 0
KTAS 160149Z 08005KT 23/13 A2992 RMK A01 T02290129  RH  053%=      5-min Rain = 0
KTAS 160150Z 08005KT 23/13 A2993 RMK A01 T02280130  RH  054%=      5-min Rain = 0
KTAS 160151Z 09005KT 23/13 A2993 RMK A01 T02270131  RH  055%=      5-min Rain = 0
KTAS 160152Z 11005KT 23/13 A2993 RMK A01 T02260131  RH  055%=      5-min Rain = 0
KTAS 160153Z 11004KT 23/13 A2993 RMK A01 T02250131  RH  055%=      5-min Rain = 0
KTAS 160154Z 12005KT 23/13 A2993 RMK A01 T02260132  RH  055%=      5-min Rain = 0
KTAS 160155Z 13005KT 23/13 A2993 RMK A01 T02260131  RH  055%=      5-min Rain = 0
KTAS 160156Z 14006KT 23/13 A2993 RMK A01 T02250131  RH  055%=      5-min Rain = 0
KTAS 160157Z 14006KT 23/13 A2993 RMK A01 T02260131  RH  055%=      5-min Rain = 0
KTAS 160158Z 14006KT 23/13 A2993 RMK A01 T02260130  RH  055%=      5-min Rain = 0
KTAS 160159Z 15006KT 23/13 A2993 RMK A01 T02260130  RH  055%=      5-min Rain = 0
KTAS 160200Z 15006KT 23/13 A2993 RMK A01 T02250130  RH  055%=      5-min Rain = 0
KTAS 160201Z 15005KT 22/13 A2993 RMK A01 T02240130  RH  055%=      5-min Rain = 0
KTAS 160202Z 14005KT 22/13 A2993 RMK A01 T02240129  RH  055%=      5-min Rain = 0
KTAS 160203Z 14003KT 22/13 A2993 RMK A01 T02240130  RH  055%=      5-min Rain = 0
KTAS 160204Z 12003KT 22/13 A2994 RMK A01 T02240130  RH  055%=      5-min Rain = 0
KTAS 160205Z 06002KT 22/13 A2994 RMK A01 T02240129  RH  055%=      5-min Rain = 0
KTAS 160206Z 03004KT 22/13 A2994 RMK A01 T02210126  RH  055%=      5-min Rain = 0
KTAS 160207Z 02005KT 22/12 A2994 RMK A01 T02160123  RH  056%=      5-min Rain = 0
KTAS 160208Z 02005KT 21/12 A2994 RMK A01 T02120122  RH  057%=      5-min Rain = 0
KTAS 160209Z 02005KT 21/12 A2994 RMK A01 T02090122  RH  058%=      5-min Rain = 0
KTAS 160210Z 02007KT 21/12 A2995 RMK A01 T02070123  RH  058%=      5-min Rain = 0
KTAS 160211Z 02007KT 21/13 A2995 RMK A01 T02070126  RH  060%=      5-min Rain = 0
KTAS 160212Z 03007KT 21/13 A2995 RMK A01 T02100129  RH  060%=      5-min Rain = 0
KTAS 160213Z 03005KT 21/13 A2995 RMK A01 T02110130  RH  060%=      5-min Rain = 0
KTAS 160214Z 03004KT 21/13 A2995 RMK A01 T02130129  RH  059%=      5-min Rain = 0
KTAS 160215Z 04003KT 22/13 A2995 RMK A01 T02160130  RH  058%=      5-min Rain = 0
KTAS 160216Z 03003KT 22/13 A2995 RMK A01 T02170130  RH  058%=      5-min Rain = 0
KTAS 160217Z 04003KT 22/13 A2995 RMK A01 T02170130  RH  057%=      5-min Rain = 0
KTAS 160218Z 06003KT 22/13 A2995 RMK A01 T02180130  RH  058%=      5-min Rain = 0
KTAS 160219Z 08003KT 22/13 A2995 RMK A01 T02190130  RH  057%=      5-min Rain = 0
KTAS 160220Z 09002KT 22/13 A2995 RMK A01 T02190129  RH  057%=      5-min Rain = 0
KTAS 160221Z 10003KT 22/13 A2995 RMK A01 T02190128  RH  056%=      5-min Rain = 0
KTAS 160222Z 12002KT 22/13 A2995 RMK A01 T02200127  RH  056%=      5-min Rain = 0
KTAS 160223Z 12003KT 22/13 A2996 RMK A01 T02210127  RH  055%=      5-min Rain = 0
KTAS 160224Z 13003KT 22/13 A2996 RMK A01 T02230127  RH  054%=      5-min Rain = 0
KTAS 160225Z 13003KT 22/13 A2996 RMK A01 T02230126  RH  054%=      5-min Rain = 0
KTAS 160226Z 12004KT 22/13 A2996 RMK A01 T02220127  RH  055%=      5-min Rain = 0
KTAS 160227Z 12004KT 22/13 A2996 RMK A01 T02210127  RH  055%=      5-min Rain = 0
KTAS 160228Z 14005KT 22/13 A2996 RMK A01 T02200126  RH  055%=      5-min Rain = 0
KTAS 160229Z 14006KT 22/12 A2996 RMK A01 T02180124  RH  055%=      5-min Rain = 0
KTAS 160230Z 14005KT 22/12 A2996 RMK A01 T02160124  RH  056%=      5-min Rain = 0
KTAS 160231Z 14006KT 21/12 A2996 RMK A01 T02140123  RH  056%=      5-min Rain = 0
KTAS 160232Z 14005KT 21/12 A2996 RMK A01 T02130122  RH  056%=      5-min Rain = 0
KTAS 160233Z 15006KT 21/12 A2996 RMK A01 T02130122  RH  056%=      5-min Rain = 0
KTAS 160234Z 15006KT 21/12 A2996 RMK A01 T02130122  RH  056%=      5-min Rain = 0
KTAS 160235Z 15007KT 21/12 A2996 RMK A01 T02140122  RH  056%=      5-min Rain = 0
KTAS 160236Z 14006KT 22/12 A2997 RMK A01 T02150119  RH  054%=      5-min Rain = 0
KTAS 160237Z 14005KT 22/12 A2997 RMK A01 T02170120  RH  054%=      5-min Rain = 0
KTAS 160238Z 13005KT 22/12 A2997 RMK A01 T02170120  RH  054%=      5-min Rain = 0
KTAS 160239Z 12004KT 22/12 A2997 RMK A01 T02170121  RH  054%=      5-min Rain = 0
KTAS 160240Z 11004KT 22/12 A2997 RMK A01 T02170120  RH  054%=      5-min Rain = 0
KTAS 160241Z 10004KT 22/12 A2997 RMK A01 T02170120  RH  054%=      5-min Rain = 0
KTAS 160242Z 11004KT 22/12 A2997 RMK A01 T02150121  RH  055%=      5-min Rain = 0
KTAS 160243Z 10005KT 22/12 A2997 RMK A01 T02150120  RH  055%=      5-min Rain = 0
KTAS 160244Z 11005KT 21/12 A2998 RMK A01 T02140120  RH  055%=      5-min Rain = 0
KTAS 160245Z 10005KT 21/12 A2998 RMK A01 T02140119  RH  055%=      5-min Rain = 0
KTAS 160246Z 11006KT 21/12 A2998 RMK A01 T02140119  RH  055%=      5-min Rain = 0
KTAS 160247Z 11006KT 21/12 A2998 RMK A01 T02140118  RH  054%=      5-min Rain = 0
KTAS 160248Z 11006KT 21/12 A2998 RMK A01 T02140117  RH  054%=      5-min Rain = 0
KTAS 160249Z 11006KT 22/12 A2998 RMK A01 T02150117  RH  054%=      5-min Rain = 0
KTAS 160250Z 12006KT 22/12 A2998 RMK A01 T02150116  RH  053%=      5-min Rain = 0
KTAS 160251Z 13006KT 22/12 A2998 RMK A01 T02150116  RH  053%=      5-min Rain = 0
KTAS 160252Z 13006KT 22/12 A2998 RMK A01 T02160115  RH  053%=      5-min Rain = 0
KTAS 160253Z 12005KT 22/11 A2998 RMK A01 T02160114  RH  052%=      5-min Rain = 0
KTAS 160254Z 12006KT 22/11 A2998 RMK A01 T02160113  RH  052%=      5-min Rain = 0
KTAS 160255Z 12006KT 22/11 A2998 RMK A01 T02170113  RH  052%=      5-min Rain = 0
KTAS 160256Z 12006KT 22/11 A2998 RMK A01 T02170112  RH  051%=      5-min Rain = 0
KTAS 160257Z 12007KT 22/11 A2998 RMK A01 T02180112  RH  051%=      5-min Rain = 0
KTAS 160258Z 13007KT 22/11 A2998 RMK A01 T02180111  RH  050%=      5-min Rain = 0
KTAS 160259Z 13007KT 22/11 A2998 RMK A01 T02190110  RH  050%=      5-min Rain = 0
KTAS 160300Z 13008KT 22/11 A2998 RMK A01 T02190110  RH  050%=      5-min Rain = 0
KTAS 160301Z 14008KT 22/11 A2998 RMK A01 T02200110  RH  049%=      5-min Rain = 0
KTAS 160302Z 14008KT 22/11 A2998 RMK A01 T02220110  RH  049%=      5-min Rain = 0
KTAS 160303Z 13009KT 22/11 A2998 RMK A01 T02220109  RH  049%=      5-min Rain = 0
KTAS 160304Z 13008KT 22/11 A2998 RMK A01 T02220109  RH  049%=      5-min Rain = 0
KTAS 160305Z 13008KT 22/11 A2998 RMK A01 T02230109  RH  048%=      5-min Rain = 0
KTAS 160306Z 13008KT 22/11 A2998 RMK A01 T02220108  RH  048%=      5-min Rain = 0
KTAS 160307Z 12007KT 22/11 A2998 RMK A01 T02220108  RH  048%=      5-min Rain = 0
KTAS 160308Z 12008KT 22/11 A2998 RMK A01 T02220107  RH  048%=      5-min Rain = 0
KTAS 160309Z 12008KT 22/11 A2998 RMK A01 T02220107  RH  048%=      5-min Rain = 0
KTAS 160310Z 12007KT 22/11 A2998 RMK A01 T02220106  RH  048%=      5-min Rain = 0
KTAS 160311Z 12007KT 22/11 A2998 RMK A01 T02210106  RH  048%=      5-min Rain = 0
KTAS 160312Z 12008KT 22/11 A2998 RMK A01 T02210106  RH  048%=      5-min Rain = 0
KTAS 160313Z 12008KT 22/11 A2998 RMK A01 T02210106  RH  048%=      5-min Rain = 0
KTAS 160314Z 11007KT 22/11 A2998 RMK A01 T02210106  RH  048%=      5-min Rain = 0
KTAS 160315Z 12007KT 22/11 A2998 RMK A01 T02200106  RH  048%=      5-min Rain = 0
KTAS 160316Z 12006KT 22/11 A2998 RMK A01 T02190107  RH  049%=      5-min Rain = 0
KTAS 160317Z 11007KT 22/11 A2998 RMK A01 T02180107  RH  049%=      5-min Rain = 0
KTAS 160318Z 11007KT 22/11 A2998 RMK A01 T02180108  RH  050%=      5-min Rain = 0
KTAS 160319Z 11007KT 22/11 A2998 RMK A01 T02170108  RH  050%=      5-min Rain = 0
KTAS 160320Z 11007KT 22/11 A2998 RMK A01 T02170108  RH  050%=      5-min Rain = 0
KTAS 160321Z 11007KT 22/11 A2998 RMK A01 T02160109  RH  050%=      5-min Rain = 0
KTAS 160322Z 11007KT 22/11 A2998 RMK A01 T02160109  RH  051%=      5-min Rain = 0
KTAS 160323Z 10007KT 22/11 A2998 RMK A01 T02160109  RH  051%=      5-min Rain = 0
KTAS 160324Z 10006KT 22/11 A2998 RMK A01 T02160109  RH  051%=      5-min Rain = 0
KTAS 160325Z 10007KT 22/11 A2998 RMK A01 T02150109  RH  051%=      5-min Rain = 0
KTAS 160326Z 09006KT 22/11 A2999 RMK A01 T02150109  RH  051%=      5-min Rain = 0
KTAS 160327Z 09007KT 21/11 A2999 RMK A01 T02140109  RH  051%=      5-min Rain = 0
KTAS 160328Z 09007KT 21/11 A2999 RMK A01 T02140110  RH  052%=      5-min Rain = 0
KTAS 160329Z 08007KT 21/11 A2999 RMK A01 T02130109  RH  051%=      5-min Rain = 0
KTAS 160330Z 08007KT 21/11 A2999 RMK A01 T02130109  RH  051%=      5-min Rain = 0
KTAS 160331Z 07007KT 21/11 A2999 RMK A01 T02130108  RH  051%=      5-min Rain = 0
KTAS 160332Z 07007KT 21/11 A2999 RMK A01 T02120108  RH  051%=      5-min Rain = 0
KTAS 160333Z 06007KT 21/11 A2999 RMK A01 T02120109  RH  052%=      5-min Rain = 0
KTAS 160334Z 06007KT 21/11 A2999 RMK A01 T02100109  RH  052%=      5-min Rain = 0
KTAS 160335Z 05007KT 21/11 A30 RMK A01 T02090109  RH  053%=      5-min Rain = 0
KTAS 160336Z 04007KT 21/11 A30 RMK A01 T02070109  RH  054%=      5-min Rain = 0
KTAS 160337Z 04007KT 21/11 A30 RMK A01 T02050110  RH  054%=      5-min Rain = 0
KTAS 160338Z 04008KT 20/11 A30 RMK A01 T02040111  RH  055%=      5-min Rain = 0
KTAS 160339Z 04008KT 20/11 A30 RMK A01 T02030113  RH  056%=      5-min Rain = 0
KTAS 160340Z 03008KT 20/11 A30 RMK A01 T02020114  RH  057%=      5-min Rain = 0
KTAS 160341Z 04008KT 20/12 A30 RMK A01 T02010116  RH  058%=      5-min Rain = 0
KTAS 160342Z 03008KT 20/12 A30 RMK A01 T02000117  RH  059%=      5-min Rain = 0
KTAS 160343Z 04008KT 20/12 A30 RMK A01 T02010118  RH  059%=      5-min Rain = 0
KTAS 160344Z 04010KT 20/12 A30 RMK A01 T02020118  RH  058%=      5-min Rain = 0
KTAS 160345Z 04011KT 21/12 A30 RMK A01 T02050116  RH  057%=      5-min Rain = 0
KTAS 160346Z 04011KT 21/12 A3001 RMK A01 T02100116  RH  055%=      5-min Rain = 0
KTAS 160347Z 03011KT 21/12 A3001 RMK A01 T02110117  RH  055%=      5-min Rain = 0
KTAS 160348Z 03010KT 21/12 A3001 RMK A01 T02100118  RH  055%=      5-min Rain = 0
KTAS 160349Z 03011KT 21/12 A3001 RMK A01 T02090118  RH  056%=      5-min Rain = 0
KTAS 160350Z 04010KT 21/12 A3001 RMK A01 T02080120  RH  057%=      5-min Rain = 0
KTAS 160351Z 04011G16KT 21/12 A3001 RMK A01 T02080123  RH  058%=      5-min Rain = 0
KTAS 160352Z 04011G16KT 21/13 A3001 RMK A01 T02080128  RH  060%=      5-min Rain = 0
KTAS 160353Z 06008KT 21/13 A30 RMK A01 T02080130  RH  061%=      5-min Rain = 0
KTAS 160354Z 09009KT 21/13 A3001 RMK A01 T02070129  RH  061%=      5-min Rain = 0
KTAS 160355Z 08010KT 21/13 A30 RMK A01 T02060128  RH  061%=      5-min Rain = 0
KTAS 160356Z 06008KT 20/13 A30 RMK A01 T02040127  RH  061%=      5-min Rain = 0
KTAS 160357Z 07009KT 21/13 A3001 RMK A01 T02050125  RH  060%=      5-min Rain = 0
KTAS 160358Z 06008KT 21/12 A3001 RMK A01 T02050123  RH  059%=      5-min Rain = 0
KTAS 160359Z 07008KT 21/12 A3001 RMK A01 T02060121  RH  058%=      5-min Rain = 0
KTAS 160400Z 07008KT 21/12 A3001 RMK A01 T02070119  RH  057%=      5-min Rain = 0
KTAS 160401Z 07007KT 21/12 A3001 RMK A01 T02080116  RH  056%=      5-min Rain = 0
KTAS 160402Z 07006KT 21/12 A3001 RMK A01 T02090115  RH  055%=      5-min Rain = 0
KTAS 160403Z 07004KT 21/12 A3002 RMK A01 T02090115  RH  055%=      5-min Rain = 0
KTAS 160404Z 08003KT 21/12 A3002 RMK A01 T02090115  RH  055%=      5-min Rain = 0
KTAS 160405Z 09003KT 21/11 A3002 RMK A01 T02080114  RH  055%=      5-min Rain = 0
KTAS 160406Z 09003KT 21/11 A3003 RMK A01 T02080114  RH  055%=      5-min Rain = 0
KTAS 160407Z 11004KT 21/11 A3003 RMK A01 T02070114  RH  055%=      5-min Rain = 0
KTAS 160408Z 14006KT 21/11 A3003 RMK A01 T02070112  RH  054%=      5-min Rain = 0
KTAS 160409Z 13011KT 21/11 A3004 RMK A01 T02070114  RH  055%=      5-min Rain = 0
KTAS 160410Z 11011KT 21/12 A3003 RMK A01 T02080119  RH  057%=      5-min Rain = 0
KTAS 160411Z 11012KT 21/12 A3003 RMK A01 T02100119  RH  056%=      5-min Rain = 0
KTAS 160412Z 12009G15KT 21/12 A3003 RMK A01 T02120117  RH  055%=      5-min Rain = 0
KTAS 160413Z 11010G15KT 21/12 A3003 RMK A01 T02140118  RH  054%=      5-min Rain = 0
KTAS 160414Z 12011KT 22/12 A3003 RMK A01 T02170121  RH  055%=      5-min Rain = 0
KTAS 160415Z 10011KT 22/12 A3003 RMK A01 T02170123  RH  055%=      5-min Rain = 0
KTAS 160416Z 11014KT 22/12 A3003 RMK A01 T02160124  RH  056%=      5-min Rain = 0
KTAS 160417Z 11013KT 22/12 A3003 RMK A01 T02160124  RH  056%=      5-min Rain = 0
KTAS 160418Z 11012KT 22/13 A3003 RMK A01 T02160125  RH  056%=      5-min Rain = 0
KTAS 160419Z 11015KT 22/13 A3003 RMK A01 T02150125  RH  057%=      5-min Rain = 0
KTAS 160420Z 11014KT 21/13 A3003 RMK A01 T02140125  RH  057%=      5-min Rain = 0
KTAS 160421Z 11013KT 21/13 A3003 RMK A01 T02130126  RH  058%=      5-min Rain = 0
KTAS 160422Z 09012KT 21/13 A3003 RMK A01 T02120126  RH  058%=      5-min Rain = 0
KTAS 160423Z 09012KT 21/12 A3003 RMK A01 T02110124  RH  057%=      5-min Rain = 0
KTAS 160424Z 09013KT 21/12 A3003 RMK A01 T02110124  RH  057%=      5-min Rain = 0
KTAS 160425Z 09012KT 21/12 A3002 RMK A01 T02120124  RH  057%=      5-min Rain = 0
KTAS 160426Z 09010KT 21/13 A3003 RMK A01 T02120125  RH  057%=      5-min Rain = 0
KTAS 160427Z 10011KT 21/13 A3003 RMK A01 T02110125  RH  058%=      5-min Rain = 0
KTAS 160428Z 10010KT 21/13 A3003 RMK A01 T02100126  RH  058%=      5-min Rain = 0
KTAS 160429Z 10011KT 21/13 A3003 RMK A01 T02090126  RH  059%=      5-min Rain = 0
KTAS 160430Z 10011KT 21/13 A3003 RMK A01 T02090126  RH  059%=      5-min Rain = 0
KTAS 160431Z 09010KT 21/13 A3002 RMK A01 T02080126  RH  059%=      5-min Rain = 0
KTAS 160432Z 09008KT 21/13 A3002 RMK A01 T02080126  RH  059%=      5-min Rain = 0
KTAS 160433Z 09007KT 21/13 A3002 RMK A01 T02080126  RH  059%=      5-min Rain = 0
KTAS 160434Z 08008KT 21/13 A3002 RMK A01 T02070125  RH  059%=      5-min Rain = 0
KTAS 160435Z 08008KT 21/13 A3002 RMK A01 T02070125  RH  059%=      5-min Rain = 0
KTAS 160436Z 07007KT 21/12 A3002 RMK A01 T02050124  RH  059%=      5-min Rain = 0
KTAS 160437Z 07010KT 20/12 A3002 RMK A01 T02040121  RH  059%=      5-min Rain = 0
KTAS 160438Z 06008KT 20/12 A3002 RMK A01 T02040119  RH  058%=      5-min Rain = 0
KTAS 160439Z 05010KT 20/12 A3002 RMK A01 T02040119  RH  058%=      5-min Rain = 0
KTAS 160440Z 05010KT 20/12 A3002 RMK A01 T02040121  RH  059%=      5-min Rain = 0
KTAS 160441Z 05011KT 20/12 A3002 RMK A01 T02030124  RH  061%=      5-min Rain = 0
KTAS 160442Z 06009KT 20/13 A3002 RMK A01 T02020126  RH  062%=      5-min Rain = 0
KTAS 160443Z 06010KT 20/13 A3002 RMK A01 T02010128  RH  063%=      5-min Rain = 0
KTAS 160444Z 07010KT 20/13 A3002 RMK A01 T02000128  RH  063%=      5-min Rain = 0
KTAS 160445Z 06011KT 20/13 A3001 RMK A01 T02000129  RH  064%=      5-min Rain = 0
KTAS 160446Z 07010KT 20/13 A3001 RMK A01 T02000128  RH  063%=      5-min Rain = 0
KTAS 160447Z 07011KT 20/13 A3001 RMK A01 T01990128  RH  063%=      5-min Rain = 0
KTAS 160448Z 07010KT 20/13 A3001 RMK A01 T01990127  RH  063%=      5-min Rain = 0
KTAS 160449Z 08011KT 20/13 A3001 RMK A01 T01990127  RH  063%=      5-min Rain = 0
KTAS 160450Z 08011KT 20/13 A3001 RMK A01 T02000126  RH  063%=      5-min Rain = 0
KTAS 160451Z 08011KT 20/13 A3001 RMK A01 T02000126  RH  062%=      5-min Rain = 0
KTAS 160452Z 08011KT 20/13 A3001 RMK A01 T02000125  RH  062%=      5-min Rain = 0
KTAS 160453Z 07010KT 20/13 A3001 RMK A01 T02000125  RH  062%=      5-min Rain = 0
KTAS 160454Z 07010KT 20/12 A3001 RMK A01 T02010124  RH  061%=      5-min Rain = 0
KTAS 160455Z 07009KT 20/12 A3001 RMK A01 T02010124  RH  061%=      5-min Rain = 0
KTAS 160456Z 06008KT 20/12 A3001 RMK A01 T02000124  RH  061%=      5-min Rain = 0
KTAS 160457Z 06008KT 20/12 A3001 RMK A01 T02000123  RH  061%=      5-min Rain = 0
KTAS 160458Z 06008KT 20/12 A3001 RMK A01 T01990124  RH  062%=      5-min Rain = 0
KTAS 160459Z 06008KT 20/12 A3001 RMK A01 T01980124  RH  062%=      5-min Rain = 0

Page generated in 0.0326 seconds.